<?xml version="1.0" encoding="utf-8"?>
<gpx xmlns:xsi="http://www.w3.org/2001/XMLSchema-instance" xmlns:xsd="http://www.w3.org/2001/XMLSchema" version="1.1" creator="Shapelink.com" xmlns="http://www.topografix.com/GPX/1/1" xmlns:gpxtpx="http://www.garmin.com/xmlschemas/TrackPointExtension/v1">
  <metadata>
    <name>Sykling 50.20 km, 2012-05-03</name>
    <desc></desc>
    <author><name>Mikael Blom</name></author> 
    <time>2012-05-03T14:57:34Z</time>
  </metadata>
  <trk>
    <name>Sykling 50.20 km, 2012-05-03</name>
    <trkseg>
      <trkpt lat="59.9741646" lon="17.7351435">
        <ele>0</ele>
        <time>2012-05-03T14:57:34Z</time>
      </trkpt>
      <trkpt lat="59.9744326" lon="17.7343623">
        <ele>10.7118</ele>
        <time>2012-05-03T14:57:41Z</time>
      </trkpt>
      <trkpt lat="59.974534" lon="17.7335164">
        <ele>15.5184</ele>
        <time>2012-05-03T14:57:48Z</time>
      </trkpt>
      <trkpt lat="59.9745433" lon="17.7332817">
        <ele>15.999</ele>
        <time>2012-05-03T14:57:50Z</time>
      </trkpt>
      <trkpt lat="59.9745317" lon="17.7324642">
        <ele>16.9604</ele>
        <time>2012-05-03T14:57:57Z</time>
      </trkpt>
      <trkpt lat="59.9745538" lon="17.7317052">
        <ele>20.8057</ele>
        <time>2012-05-03T14:58:04Z</time>
      </trkpt>
      <trkpt lat="59.9745779" lon="17.7308376">
        <ele>20.325</ele>
        <time>2012-05-03T14:58:12Z</time>
      </trkpt>
      <trkpt lat="59.9746094" lon="17.7297617">
        <ele>21.767</ele>
        <time>2012-05-03T14:58:22Z</time>
      </trkpt>
      <trkpt lat="59.9745573" lon="17.728896">
        <ele>23.209</ele>
        <time>2012-05-03T14:58:29Z</time>
      </trkpt>
      <trkpt lat="59.9744751" lon="17.7278817">
        <ele>24.1703</ele>
        <time>2012-05-03T14:58:37Z</time>
      </trkpt>
      <trkpt lat="59.9744563" lon="17.7272286">
        <ele>25.6123</ele>
        <time>2012-05-03T14:58:43Z</time>
      </trkpt>
      <trkpt lat="59.974423" lon="17.7264957">
        <ele>25.6123</ele>
        <time>2012-05-03T14:58:50Z</time>
      </trkpt>
      <trkpt lat="59.9743501" lon="17.7255807">
        <ele>26.0929</ele>
        <time>2012-05-03T14:58:58Z</time>
      </trkpt>
      <trkpt lat="59.9742325" lon="17.724549">
        <ele>26.0929</ele>
        <time>2012-05-03T14:59:07Z</time>
      </trkpt>
      <trkpt lat="59.9740966" lon="17.7235119">
        <ele>25.6123</ele>
        <time>2012-05-03T14:59:16Z</time>
      </trkpt>
      <trkpt lat="59.9738937" lon="17.7226008">
        <ele>23.209</ele>
        <time>2012-05-03T14:59:24Z</time>
      </trkpt>
      <trkpt lat="59.9736631" lon="17.7218363">
        <ele>24.651</ele>
        <time>2012-05-03T14:59:31Z</time>
      </trkpt>
      <trkpt lat="59.9733153" lon="17.7210611">
        <ele>26.0929</ele>
        <time>2012-05-03T14:59:39Z</time>
      </trkpt>
      <trkpt lat="59.9728965" lon="17.7204476">
        <ele>25.1317</ele>
        <time>2012-05-03T14:59:47Z</time>
      </trkpt>
      <trkpt lat="59.9724364" lon="17.7199905">
        <ele>24.1703</ele>
        <time>2012-05-03T14:59:55Z</time>
      </trkpt>
      <trkpt lat="59.9717856" lon="17.7194192">
        <ele>22.7283</ele>
        <time>2012-05-03T15:00:06Z</time>
      </trkpt>
      <trkpt lat="59.971232" lon="17.7189189">
        <ele>25.1317</ele>
        <time>2012-05-03T15:00:15Z</time>
      </trkpt>
      <trkpt lat="59.970797" lon="17.7185168">
        <ele>26.5736</ele>
        <time>2012-05-03T15:00:22Z</time>
      </trkpt>
      <trkpt lat="59.9702419" lon="17.7180138">
        <ele>26.5736</ele>
        <time>2012-05-03T15:00:31Z</time>
      </trkpt>
      <trkpt lat="59.9696279" lon="17.7174885">
        <ele>26.5736</ele>
        <time>2012-05-03T15:00:41Z</time>
      </trkpt>
      <trkpt lat="59.9691446" lon="17.7172358">
        <ele>26.0929</ele>
        <time>2012-05-03T15:00:49Z</time>
      </trkpt>
      <trkpt lat="59.9686666" lon="17.7171032">
        <ele>23.209</ele>
        <time>2012-05-03T15:00:57Z</time>
      </trkpt>
      <trkpt lat="59.9682449" lon="17.7168671">
        <ele>20.325</ele>
        <time>2012-05-03T15:01:03Z</time>
      </trkpt>
      <trkpt lat="59.9679546" lon="17.7165085">
        <ele>17.9218</ele>
        <time>2012-05-03T15:01:07Z</time>
      </trkpt>
      <trkpt lat="59.9678082" lon="17.7162462">
        <ele>17.4412</ele>
        <time>2012-05-03T15:01:09Z</time>
      </trkpt>
      <trkpt lat="59.9675667" lon="17.7155526">
        <ele>18.4023</ele>
        <time>2012-05-03T15:01:13Z</time>
      </trkpt>
      <trkpt lat="59.9673845" lon="17.7145825">
        <ele>15.999</ele>
        <time>2012-05-03T15:01:18Z</time>
      </trkpt>
      <trkpt lat="59.9672854" lon="17.7137794">
        <ele>18.4023</ele>
        <time>2012-05-03T15:01:23Z</time>
      </trkpt>
      <trkpt lat="59.9671771" lon="17.7130851">
        <ele>19.3638</ele>
        <time>2012-05-03T15:01:29Z</time>
      </trkpt>
      <trkpt lat="59.9670014" lon="17.7124027">
        <ele>21.767</ele>
        <time>2012-05-03T15:01:36Z</time>
      </trkpt>
      <trkpt lat="59.9667748" lon="17.7117839">
        <ele>20.325</ele>
        <time>2012-05-03T15:01:43Z</time>
      </trkpt>
      <trkpt lat="59.9665124" lon="17.7109807">
        <ele>16.4797</ele>
        <time>2012-05-03T15:01:51Z</time>
      </trkpt>
      <trkpt lat="59.9661876" lon="17.7097966">
        <ele>15.5184</ele>
        <time>2012-05-03T15:02:01Z</time>
      </trkpt>
      <trkpt lat="59.965853" lon="17.7086695">
        <ele>14.0764</ele>
        <time>2012-05-03T15:02:10Z</time>
      </trkpt>
      <trkpt lat="59.9657184" lon="17.7083336">
        <ele>15.999</ele>
        <time>2012-05-03T15:02:13Z</time>
      </trkpt>
      <trkpt lat="59.9654346" lon="17.7079392">
        <ele>16.9604</ele>
        <time>2012-05-03T15:02:18Z</time>
      </trkpt>
      <trkpt lat="59.9647255" lon="17.7073874">
        <ele>17.4412</ele>
        <time>2012-05-03T15:02:29Z</time>
      </trkpt>
      <trkpt lat="59.9641993" lon="17.7071503">
        <ele>17.9218</ele>
        <time>2012-05-03T15:02:37Z</time>
      </trkpt>
      <trkpt lat="59.9638049" lon="17.7070912">
        <ele>17.9218</ele>
        <time>2012-05-03T15:02:43Z</time>
      </trkpt>
      <trkpt lat="59.9634093" lon="17.7070622">
        <ele>19.3638</ele>
        <time>2012-05-03T15:02:49Z</time>
      </trkpt>
      <trkpt lat="59.9631441" lon="17.7070793">
        <ele>19.3638</ele>
        <time>2012-05-03T15:02:53Z</time>
      </trkpt>
      <trkpt lat="59.9626932" lon="17.7070894">
        <ele>18.8831</ele>
        <time>2012-05-03T15:03:00Z</time>
      </trkpt>
      <trkpt lat="59.9623445" lon="17.7069645">
        <ele>17.4412</ele>
        <time>2012-05-03T15:03:05Z</time>
      </trkpt>
      <trkpt lat="59.9618676" lon="17.7066746">
        <ele>15.5184</ele>
        <time>2012-05-03T15:03:12Z</time>
      </trkpt>
      <trkpt lat="59.9614979" lon="17.7062338">
        <ele>14.0764</ele>
        <time>2012-05-03T15:03:18Z</time>
      </trkpt>
      <trkpt lat="59.961071" lon="17.7054194">
        <ele>15.5184</ele>
        <time>2012-05-03T15:03:26Z</time>
      </trkpt>
      <trkpt lat="59.9606439" lon="17.7048111">
        <ele>16.9604</ele>
        <time>2012-05-03T15:03:33Z</time>
      </trkpt>
      <trkpt lat="59.9601156" lon="17.7041836">
        <ele>18.8831</ele>
        <time>2012-05-03T15:03:41Z</time>
      </trkpt>
      <trkpt lat="59.9598674" lon="17.7035368">
        <ele>20.325</ele>
        <time>2012-05-03T15:03:47Z</time>
      </trkpt>
      <trkpt lat="59.9597153" lon="17.7031124">
        <ele>21.2864</ele>
        <time>2012-05-03T15:03:51Z</time>
      </trkpt>
      <trkpt lat="59.9594919" lon="17.7022965">
        <ele>21.2864</ele>
        <time>2012-05-03T15:03:58Z</time>
      </trkpt>
      <trkpt lat="59.9594038" lon="17.7019421">
        <ele>21.767</ele>
        <time>2012-05-03T15:04:01Z</time>
      </trkpt>
      <trkpt lat="59.9592895" lon="17.7014671">
        <ele>21.2864</ele>
        <time>2012-05-03T15:04:05Z</time>
      </trkpt>
      <trkpt lat="59.9591465" lon="17.7003881">
        <ele>15.0377</ele>
        <time>2012-05-03T15:04:13Z</time>
      </trkpt>
      <trkpt lat="59.9590466" lon="17.6992168">
        <ele>12.1538</ele>
        <time>2012-05-03T15:04:21Z</time>
      </trkpt>
      <trkpt lat="59.9590077" lon="17.6981901">
        <ele>9.75061</ele>
        <time>2012-05-03T15:04:28Z</time>
      </trkpt>
      <trkpt lat="59.9588697" lon="17.6971431">
        <ele>9.2699</ele>
        <time>2012-05-03T15:04:35Z</time>
      </trkpt>
      <trkpt lat="59.9586368" lon="17.6962692">
        <ele>11.1925</ele>
        <time>2012-05-03T15:04:41Z</time>
      </trkpt>
      <trkpt lat="59.9581913" lon="17.6951381">
        <ele>12.6344</ele>
        <time>2012-05-03T15:04:50Z</time>
      </trkpt>
      <trkpt lat="59.9576604" lon="17.6936209">
        <ele>9.2699</ele>
        <time>2012-05-03T15:05:02Z</time>
      </trkpt>
      <trkpt lat="59.9572336" lon="17.6923769">
        <ele>7.34717</ele>
        <time>2012-05-03T15:05:12Z</time>
      </trkpt>
      <trkpt lat="59.9569065" lon="17.6914271">
        <ele>5.90527</ele>
        <time>2012-05-03T15:05:20Z</time>
      </trkpt>
      <trkpt lat="59.9566766" lon="17.6907151">
        <ele>10.7118</ele>
        <time>2012-05-03T15:05:27Z</time>
      </trkpt>
      <trkpt lat="59.9564628" lon="17.6902278">
        <ele>10.2312</ele>
        <time>2012-05-03T15:05:33Z</time>
      </trkpt>
      <trkpt lat="59.9562452" lon="17.689545">
        <ele>10.7118</ele>
        <time>2012-05-03T15:05:40Z</time>
      </trkpt>
      <trkpt lat="59.9561789" lon="17.6893372">
        <ele>10.7118</ele>
        <time>2012-05-03T15:05:42Z</time>
      </trkpt>
      <trkpt lat="59.9560586" lon="17.6887218">
        <ele>11.6732</ele>
        <time>2012-05-03T15:05:47Z</time>
      </trkpt>
      <trkpt lat="59.9559046" lon="17.6877658">
        <ele>13.1151</ele>
        <time>2012-05-03T15:05:54Z</time>
      </trkpt>
      <trkpt lat="59.955726" lon="17.6866488">
        <ele>12.6344</ele>
        <time>2012-05-03T15:06:02Z</time>
      </trkpt>
      <trkpt lat="59.9555391" lon="17.685333">
        <ele>12.1538</ele>
        <time>2012-05-03T15:06:11Z</time>
      </trkpt>
      <trkpt lat="59.9553137" lon="17.6839733">
        <ele>11.6732</ele>
        <time>2012-05-03T15:06:20Z</time>
      </trkpt>
      <trkpt lat="59.9551199" lon="17.6830939">
        <ele>12.6344</ele>
        <time>2012-05-03T15:06:26Z</time>
      </trkpt>
      <trkpt lat="59.9549029" lon="17.6823105">
        <ele>14.0764</ele>
        <time>2012-05-03T15:06:32Z</time>
      </trkpt>
      <trkpt lat="59.9548168" lon="17.6820589">
        <ele>14.0764</ele>
        <time>2012-05-03T15:06:34Z</time>
      </trkpt>
      <trkpt lat="59.9545829" lon="17.6816703">
        <ele>12.1538</ele>
        <time>2012-05-03T15:06:38Z</time>
      </trkpt>
      <trkpt lat="59.9545374" lon="17.6815452">
        <ele>12.1538</ele>
        <time>2012-05-03T15:06:39Z</time>
      </trkpt>
      <trkpt lat="59.9541503" lon="17.6803298">
        <ele>11.1925</ele>
        <time>2012-05-03T15:06:48Z</time>
      </trkpt>
      <trkpt lat="59.9538119" lon="17.6792772">
        <ele>11.6732</ele>
        <time>2012-05-03T15:06:56Z</time>
      </trkpt>
      <trkpt lat="59.9535506" lon="17.6784377">
        <ele>11.6732</ele>
        <time>2012-05-03T15:07:03Z</time>
      </trkpt>
      <trkpt lat="59.9533085" lon="17.6776494">
        <ele>11.6732</ele>
        <time>2012-05-03T15:07:10Z</time>
      </trkpt>
      <trkpt lat="59.9529851" lon="17.6768009">
        <ele>12.1538</ele>
        <time>2012-05-03T15:07:18Z</time>
      </trkpt>
      <trkpt lat="59.952861" lon="17.6765027">
        <ele>13.1151</ele>
        <time>2012-05-03T15:07:21Z</time>
      </trkpt>
      <trkpt lat="59.9525979" lon="17.6756893">
        <ele>16.4797</ele>
        <time>2012-05-03T15:07:29Z</time>
      </trkpt>
      <trkpt lat="59.9524557" lon="17.675252">
        <ele>17.9218</ele>
        <time>2012-05-03T15:07:34Z</time>
      </trkpt>
      <trkpt lat="59.9523425" lon="17.6747848">
        <ele>18.4023</ele>
        <time>2012-05-03T15:07:39Z</time>
      </trkpt>
      <trkpt lat="59.9522662" lon="17.6742906">
        <ele>17.9218</ele>
        <time>2012-05-03T15:07:43Z</time>
      </trkpt>
      <trkpt lat="59.9520976" lon="17.6734034">
        <ele>15.999</ele>
        <time>2012-05-03T15:07:50Z</time>
      </trkpt>
      <trkpt lat="59.951968" lon="17.6724953">
        <ele>13.5958</ele>
        <time>2012-05-03T15:07:57Z</time>
      </trkpt>
      <trkpt lat="59.9519291" lon="17.6716425">
        <ele>11.1925</ele>
        <time>2012-05-03T15:08:03Z</time>
      </trkpt>
      <trkpt lat="59.9518647" lon="17.6711604">
        <ele>11.6732</ele>
        <time>2012-05-03T15:08:06Z</time>
      </trkpt>
      <trkpt lat="59.9518352" lon="17.6704289">
        <ele>12.1538</ele>
        <time>2012-05-03T15:08:10Z</time>
      </trkpt>
      <trkpt lat="59.9518957" lon="17.6690744">
        <ele>9.75061</ele>
        <time>2012-05-03T15:08:18Z</time>
      </trkpt>
      <trkpt lat="59.9518266" lon="17.668458">
        <ele>8.78918</ele>
        <time>2012-05-03T15:08:22Z</time>
      </trkpt>
      <trkpt lat="59.9516627" lon="17.668091">
        <ele>8.78918</ele>
        <time>2012-05-03T15:08:25Z</time>
      </trkpt>
      <trkpt lat="59.9514166" lon="17.6680886">
        <ele>9.75061</ele>
        <time>2012-05-03T15:08:28Z</time>
      </trkpt>
      <trkpt lat="59.9506984" lon="17.6682878">
        <ele>12.1538</ele>
        <time>2012-05-03T15:08:38Z</time>
      </trkpt>
      <trkpt lat="59.9502346" lon="17.6682666">
        <ele>12.6344</ele>
        <time>2012-05-03T15:08:45Z</time>
      </trkpt>
      <trkpt lat="59.9497266" lon="17.6680632">
        <ele>12.6344</ele>
        <time>2012-05-03T15:08:53Z</time>
      </trkpt>
      <trkpt lat="59.9490307" lon="17.6676716">
        <ele>13.5958</ele>
        <time>2012-05-03T15:09:04Z</time>
      </trkpt>
      <trkpt lat="59.9483261" lon="17.6672658">
        <ele>14.0764</ele>
        <time>2012-05-03T15:09:15Z</time>
      </trkpt>
      <trkpt lat="59.9475561" lon="17.6668557">
        <ele>15.5184</ele>
        <time>2012-05-03T15:09:27Z</time>
      </trkpt>
      <trkpt lat="59.946835" lon="17.6665317">
        <ele>16.9604</ele>
        <time>2012-05-03T15:09:38Z</time>
      </trkpt>
      <trkpt lat="59.9464977" lon="17.6664708">
        <ele>16.9604</ele>
        <time>2012-05-03T15:09:43Z</time>
      </trkpt>
      <trkpt lat="59.9460298" lon="17.6662108">
        <ele>17.9218</ele>
        <time>2012-05-03T15:09:50Z</time>
      </trkpt>
      <trkpt lat="59.9453431" lon="17.6659482">
        <ele>18.4023</ele>
        <time>2012-05-03T15:10:00Z</time>
      </trkpt>
      <trkpt lat="59.9445947" lon="17.6656639">
        <ele>19.3638</ele>
        <time>2012-05-03T15:10:11Z</time>
      </trkpt>
      <trkpt lat="59.9439257" lon="17.6653524">
        <ele>19.8444</ele>
        <time>2012-05-03T15:10:21Z</time>
      </trkpt>
      <trkpt lat="59.9433154" lon="17.6649188">
        <ele>20.8057</ele>
        <time>2012-05-03T15:10:31Z</time>
      </trkpt>
      <trkpt lat="59.9427903" lon="17.6644064">
        <ele>21.2864</ele>
        <time>2012-05-03T15:10:40Z</time>
      </trkpt>
      <trkpt lat="59.9423253" lon="17.6638125">
        <ele>22.7283</ele>
        <time>2012-05-03T15:10:49Z</time>
      </trkpt>
      <trkpt lat="59.9418362" lon="17.6630635">
        <ele>24.651</ele>
        <time>2012-05-03T15:10:59Z</time>
      </trkpt>
      <trkpt lat="59.9414518" lon="17.6624573">
        <ele>25.6123</ele>
        <time>2012-05-03T15:11:07Z</time>
      </trkpt>
      <trkpt lat="59.9410866" lon="17.6621689">
        <ele>26.0929</ele>
        <time>2012-05-03T15:11:13Z</time>
      </trkpt>
      <trkpt lat="59.940814" lon="17.6620917">
        <ele>26.0929</ele>
        <time>2012-05-03T15:11:17Z</time>
      </trkpt>
      <trkpt lat="59.9405503" lon="17.6618682">
        <ele>25.6123</ele>
        <time>2012-05-03T15:11:21Z</time>
      </trkpt>
      <trkpt lat="59.940456" lon="17.6614466">
        <ele>25.1317</ele>
        <time>2012-05-03T15:11:24Z</time>
      </trkpt>
      <trkpt lat="59.9405228" lon="17.6606967">
        <ele>26.0929</ele>
        <time>2012-05-03T15:11:29Z</time>
      </trkpt>
      <trkpt lat="59.9405437" lon="17.6601034">
        <ele>27.5349</ele>
        <time>2012-05-03T15:11:33Z</time>
      </trkpt>
      <trkpt lat="59.9405293" lon="17.6599097">
        <ele>28.4962</ele>
        <time>2012-05-03T15:11:35Z</time>
      </trkpt>
      <trkpt lat="59.940435" lon="17.6596334">
        <ele>27.5349</ele>
        <time>2012-05-03T15:11:38Z</time>
      </trkpt>
      <trkpt lat="59.9402835" lon="17.6587386">
        <ele>28.0155</ele>
        <time>2012-05-03T15:11:45Z</time>
      </trkpt>
      <trkpt lat="59.9400595" lon="17.657665">
        <ele>28.0155</ele>
        <time>2012-05-03T15:11:54Z</time>
      </trkpt>
      <trkpt lat="59.9399059" lon="17.6569079">
        <ele>27.0543</ele>
        <time>2012-05-03T15:12:01Z</time>
      </trkpt>
      <trkpt lat="59.9397077" lon="17.65595">
        <ele>27.5349</ele>
        <time>2012-05-03T15:12:10Z</time>
      </trkpt>
      <trkpt lat="59.9394637" lon="17.6547263">
        <ele>28.0155</ele>
        <time>2012-05-03T15:12:21Z</time>
      </trkpt>
      <trkpt lat="59.9392597" lon="17.6537059">
        <ele>28.4962</ele>
        <time>2012-05-03T15:12:30Z</time>
      </trkpt>
      <trkpt lat="59.9390071" lon="17.6526753">
        <ele>28.0155</ele>
        <time>2012-05-03T15:12:39Z</time>
      </trkpt>
      <trkpt lat="59.9386635" lon="17.6515248">
        <ele>29.9381</ele>
        <time>2012-05-03T15:12:49Z</time>
      </trkpt>
      <trkpt lat="59.9383701" lon="17.6507786">
        <ele>30.4188</ele>
        <time>2012-05-03T15:12:56Z</time>
      </trkpt>
      <trkpt lat="59.9381318" lon="17.6501489">
        <ele>30.8995</ele>
        <time>2012-05-03T15:13:02Z</time>
      </trkpt>
      <trkpt lat="59.9379242" lon="17.6496515">
        <ele>31.8607</ele>
        <time>2012-05-03T15:13:08Z</time>
      </trkpt>
      <trkpt lat="59.9378496" lon="17.6495012">
        <ele>31.8607</ele>
        <time>2012-05-03T15:13:11Z</time>
      </trkpt>
      <trkpt lat="59.9378102" lon="17.6493162">
        <ele>31.8607</ele>
        <time>2012-05-03T15:13:15Z</time>
      </trkpt>
      <trkpt lat="59.9376875" lon="17.648847">
        <ele>30.8995</ele>
        <time>2012-05-03T15:13:22Z</time>
      </trkpt>
      <trkpt lat="59.9375335" lon="17.6485757">
        <ele>30.4188</ele>
        <time>2012-05-03T15:13:26Z</time>
      </trkpt>
      <trkpt lat="59.9374576" lon="17.6484192">
        <ele>29.9381</ele>
        <time>2012-05-03T15:13:28Z</time>
      </trkpt>
      <trkpt lat="59.9371192" lon="17.6479059">
        <ele>29.4575</ele>
        <time>2012-05-03T15:13:35Z</time>
      </trkpt>
      <trkpt lat="59.9367453" lon="17.6474654">
        <ele>28.9769</ele>
        <time>2012-05-03T15:13:42Z</time>
      </trkpt>
      <trkpt lat="59.9363101" lon="17.6469139">
        <ele>28.9769</ele>
        <time>2012-05-03T15:13:50Z</time>
      </trkpt>
      <trkpt lat="59.9359246" lon="17.6463995">
        <ele>28.4962</ele>
        <time>2012-05-03T15:13:57Z</time>
      </trkpt>
      <trkpt lat="59.9354973" lon="17.6459039">
        <ele>28.4962</ele>
        <time>2012-05-03T15:14:04Z</time>
      </trkpt>
      <trkpt lat="59.9350545" lon="17.6454136">
        <ele>29.4575</ele>
        <time>2012-05-03T15:14:11Z</time>
      </trkpt>
      <trkpt lat="59.9346352" lon="17.6449178">
        <ele>29.4575</ele>
        <time>2012-05-03T15:14:18Z</time>
      </trkpt>
      <trkpt lat="59.9343354" lon="17.6444342">
        <ele>28.0155</ele>
        <time>2012-05-03T15:14:23Z</time>
      </trkpt>
      <trkpt lat="59.9339671" lon="17.6439636">
        <ele>27.0543</ele>
        <time>2012-05-03T15:14:28Z</time>
      </trkpt>
      <trkpt lat="59.9334023" lon="17.6433318">
        <ele>25.1317</ele>
        <time>2012-05-03T15:14:35Z</time>
      </trkpt>
      <trkpt lat="59.932997" lon="17.6427204">
        <ele>21.767</ele>
        <time>2012-05-03T15:14:40Z</time>
      </trkpt>
      <trkpt lat="59.9329143" lon="17.642605">
        <ele>20.8057</ele>
        <time>2012-05-03T15:14:41Z</time>
      </trkpt>
      <trkpt lat="59.9327695" lon="17.6423521">
        <ele>19.8444</ele>
        <time>2012-05-03T15:14:43Z</time>
      </trkpt>
      <trkpt lat="59.9322911" lon="17.6418256">
        <ele>20.8057</ele>
        <time>2012-05-03T15:14:49Z</time>
      </trkpt>
      <trkpt lat="59.9319303" lon="17.6415207">
        <ele>20.8057</ele>
        <time>2012-05-03T15:14:54Z</time>
      </trkpt>
      <trkpt lat="59.9313361" lon="17.6410892">
        <ele>23.6896</ele>
        <time>2012-05-03T15:15:02Z</time>
      </trkpt>
      <trkpt lat="59.9309336" lon="17.6407877">
        <ele>25.1317</ele>
        <time>2012-05-03T15:15:07Z</time>
      </trkpt>
      <trkpt lat="59.9306041" lon="17.6407696">
        <ele>26.5736</ele>
        <time>2012-05-03T15:15:11Z</time>
      </trkpt>
      <trkpt lat="59.9300872" lon="17.6407463">
        <ele>28.0155</ele>
        <time>2012-05-03T15:15:17Z</time>
      </trkpt>
      <trkpt lat="59.9297009" lon="17.6407852">
        <ele>25.1317</ele>
        <time>2012-05-03T15:15:22Z</time>
      </trkpt>
      <trkpt lat="59.9291671" lon="17.6408828">
        <ele>19.3638</ele>
        <time>2012-05-03T15:15:29Z</time>
      </trkpt>
      <trkpt lat="59.9286409" lon="17.6409677">
        <ele>15.5184</ele>
        <time>2012-05-03T15:15:36Z</time>
      </trkpt>
      <trkpt lat="59.9281126" lon="17.6410142">
        <ele>17.4412</ele>
        <time>2012-05-03T15:15:43Z</time>
      </trkpt>
      <trkpt lat="59.9276416" lon="17.6410531">
        <ele>21.767</ele>
        <time>2012-05-03T15:15:49Z</time>
      </trkpt>
      <trkpt lat="59.9271049" lon="17.6410832">
        <ele>24.1703</ele>
        <time>2012-05-03T15:15:56Z</time>
      </trkpt>
      <trkpt lat="59.926576" lon="17.6411292">
        <ele>25.6123</ele>
        <time>2012-05-03T15:16:03Z</time>
      </trkpt>
      <trkpt lat="59.9259467" lon="17.6412386">
        <ele>24.1703</ele>
        <time>2012-05-03T15:16:12Z</time>
      </trkpt>
      <trkpt lat="59.9253784" lon="17.6412268">
        <ele>26.5736</ele>
        <time>2012-05-03T15:16:20Z</time>
      </trkpt>
      <trkpt lat="59.9250004" lon="17.6412819">
        <ele>26.0929</ele>
        <time>2012-05-03T15:16:26Z</time>
      </trkpt>
      <trkpt lat="59.9245819" lon="17.6413876">
        <ele>23.6896</ele>
        <time>2012-05-03T15:16:33Z</time>
      </trkpt>
      <trkpt lat="59.9240543" lon="17.6414866">
        <ele>18.4023</ele>
        <time>2012-05-03T15:16:41Z</time>
      </trkpt>
      <trkpt lat="59.9235542" lon="17.6415629">
        <ele>16.4797</ele>
        <time>2012-05-03T15:16:49Z</time>
      </trkpt>
      <trkpt lat="59.9230479" lon="17.6416323">
        <ele>15.5184</ele>
        <time>2012-05-03T15:16:58Z</time>
      </trkpt>
      <trkpt lat="59.9226547" lon="17.6416768">
        <ele>15.5184</ele>
        <time>2012-05-03T15:17:05Z</time>
      </trkpt>
      <trkpt lat="59.9220472" lon="17.6417551">
        <ele>15.5184</ele>
        <time>2012-05-03T15:17:15Z</time>
      </trkpt>
      <trkpt lat="59.9215958" lon="17.6418154">
        <ele>18.4023</ele>
        <time>2012-05-03T15:17:23Z</time>
      </trkpt>
      <trkpt lat="59.9212733" lon="17.6418551">
        <ele>19.3638</ele>
        <time>2012-05-03T15:17:28Z</time>
      </trkpt>
      <trkpt lat="59.9207554" lon="17.6418613">
        <ele>20.325</ele>
        <time>2012-05-03T15:17:35Z</time>
      </trkpt>
      <trkpt lat="59.9202036" lon="17.6418799">
        <ele>18.8831</ele>
        <time>2012-05-03T15:17:42Z</time>
      </trkpt>
      <trkpt lat="59.9196809" lon="17.6419788">
        <ele>16.4797</ele>
        <time>2012-05-03T15:17:49Z</time>
      </trkpt>
      <trkpt lat="59.9190969" lon="17.6420275">
        <ele>18.8831</ele>
        <time>2012-05-03T15:17:57Z</time>
      </trkpt>
      <trkpt lat="59.9185344" lon="17.6420788">
        <ele>23.209</ele>
        <time>2012-05-03T15:18:05Z</time>
      </trkpt>
      <trkpt lat="59.9180627" lon="17.6421103">
        <ele>23.209</ele>
        <time>2012-05-03T15:18:11Z</time>
      </trkpt>
      <trkpt lat="59.9174554" lon="17.6421431">
        <ele>21.2864</ele>
        <time>2012-05-03T15:18:18Z</time>
      </trkpt>
      <trkpt lat="59.9172003" lon="17.6421599">
        <ele>19.8444</ele>
        <time>2012-05-03T15:18:21Z</time>
      </trkpt>
      <trkpt lat="59.9166355" lon="17.642291">
        <ele>18.4023</ele>
        <time>2012-05-03T15:18:28Z</time>
      </trkpt>
      <trkpt lat="59.9160274" lon="17.6423714">
        <ele>16.9604</ele>
        <time>2012-05-03T15:18:36Z</time>
      </trkpt>
      <trkpt lat="59.915399" lon="17.6424543">
        <ele>15.5184</ele>
        <time>2012-05-03T15:18:44Z</time>
      </trkpt>
      <trkpt lat="59.9150701" lon="17.6426292">
        <ele>16.4797</ele>
        <time>2012-05-03T15:18:49Z</time>
      </trkpt>
      <trkpt lat="59.9145139" lon="17.6427567">
        <ele>19.3638</ele>
        <time>2012-05-03T15:18:58Z</time>
      </trkpt>
      <trkpt lat="59.914094" lon="17.642847">
        <ele>20.8057</ele>
        <time>2012-05-03T15:19:06Z</time>
      </trkpt>
      <trkpt lat="59.9139998" lon="17.6428527">
        <ele>21.2864</ele>
        <time>2012-05-03T15:19:08Z</time>
      </trkpt>
      <trkpt lat="59.9135855" lon="17.6429489">
        <ele>25.1317</ele>
        <time>2012-05-03T15:19:16Z</time>
      </trkpt>
      <trkpt lat="59.9131818" lon="17.6430381">
        <ele>26.5736</ele>
        <time>2012-05-03T15:19:23Z</time>
      </trkpt>
      <trkpt lat="59.9129503" lon="17.6430754">
        <ele>30.4188</ele>
        <time>2012-05-03T15:19:27Z</time>
      </trkpt>
      <trkpt lat="59.9127394" lon="17.643019">
        <ele>29.9381</ele>
        <time>2012-05-03T15:19:30Z</time>
      </trkpt>
      <trkpt lat="59.9124106" lon="17.6430143">
        <ele>28.0155</ele>
        <time>2012-05-03T15:19:34Z</time>
      </trkpt>
      <trkpt lat="59.911847" lon="17.6431514">
        <ele>28.0155</ele>
        <time>2012-05-03T15:19:42Z</time>
      </trkpt>
      <trkpt lat="59.9112762" lon="17.6432874">
        <ele>34.7449</ele>
        <time>2012-05-03T15:19:51Z</time>
      </trkpt>
      <trkpt lat="59.9107805" lon="17.6433644">
        <ele>33.7834</ele>
        <time>2012-05-03T15:19:58Z</time>
      </trkpt>
      <trkpt lat="59.9106308" lon="17.6433919">
        <ele>33.3029</ele>
        <time>2012-05-03T15:20:00Z</time>
      </trkpt>
      <trkpt lat="59.9102076" lon="17.643515">
        <ele>35.7061</ele>
        <time>2012-05-03T15:20:06Z</time>
      </trkpt>
      <trkpt lat="59.9101324" lon="17.6435199">
        <ele>35.2255</ele>
        <time>2012-05-03T15:20:07Z</time>
      </trkpt>
      <trkpt lat="59.9098936" lon="17.6434635">
        <ele>33.3029</ele>
        <time>2012-05-03T15:20:10Z</time>
      </trkpt>
      <trkpt lat="59.909483" lon="17.6435075">
        <ele>30.8995</ele>
        <time>2012-05-03T15:20:15Z</time>
      </trkpt>
      <trkpt lat="59.9090099" lon="17.6435699">
        <ele>31.3801</ele>
        <time>2012-05-03T15:20:21Z</time>
      </trkpt>
      <trkpt lat="59.9084183" lon="17.6436048">
        <ele>31.3801</ele>
        <time>2012-05-03T15:20:29Z</time>
      </trkpt>
      <trkpt lat="59.9079298" lon="17.6435692">
        <ele>27.5349</ele>
        <time>2012-05-03T15:20:36Z</time>
      </trkpt>
      <trkpt lat="59.9074205" lon="17.6434853">
        <ele>22.7283</ele>
        <time>2012-05-03T15:20:43Z</time>
      </trkpt>
      <trkpt lat="59.906842" lon="17.6433515">
        <ele>19.3638</ele>
        <time>2012-05-03T15:20:51Z</time>
      </trkpt>
      <trkpt lat="59.9062596" lon="17.6431415">
        <ele>16.9604</ele>
        <time>2012-05-03T15:20:59Z</time>
      </trkpt>
      <trkpt lat="59.9057086" lon="17.6429006">
        <ele>14.557</ele>
        <time>2012-05-03T15:21:06Z</time>
      </trkpt>
      <trkpt lat="59.9056339" lon="17.6428761">
        <ele>14.557</ele>
        <time>2012-05-03T15:21:07Z</time>
      </trkpt>
      <trkpt lat="59.9052065" lon="17.6427626">
        <ele>16.9604</ele>
        <time>2012-05-03T15:21:13Z</time>
      </trkpt>
      <trkpt lat="59.9048926" lon="17.6426299">
        <ele>16.4797</ele>
        <time>2012-05-03T15:21:18Z</time>
      </trkpt>
      <trkpt lat="59.9045515" lon="17.642365">
        <ele>14.0764</ele>
        <time>2012-05-03T15:21:24Z</time>
      </trkpt>
      <trkpt lat="59.9044917" lon="17.6423367">
        <ele>14.557</ele>
        <time>2012-05-03T15:21:25Z</time>
      </trkpt>
      <trkpt lat="59.9035858" lon="17.6419664">
        <ele>26.5736</ele>
        <time>2012-05-03T15:24:02Z</time>
      </trkpt>
      <trkpt lat="59.9035501" lon="17.6419432">
        <ele>26.5736</ele>
        <time>2012-05-03T15:24:03Z</time>
      </trkpt>
      <trkpt lat="59.9033305" lon="17.6418328">
        <ele>25.1317</ele>
        <time>2012-05-03T15:24:06Z</time>
      </trkpt>
      <trkpt lat="59.9027625" lon="17.6415196">
        <ele>22.7283</ele>
        <time>2012-05-03T15:24:14Z</time>
      </trkpt>
      <trkpt lat="59.9021738" lon="17.6411332">
        <ele>21.2864</ele>
        <time>2012-05-03T15:24:22Z</time>
      </trkpt>
      <trkpt lat="59.901483" lon="17.6405329">
        <ele>20.8057</ele>
        <time>2012-05-03T15:24:32Z</time>
      </trkpt>
      <trkpt lat="59.9008985" lon="17.6399414">
        <ele>20.8057</ele>
        <time>2012-05-03T15:24:41Z</time>
      </trkpt>
      <trkpt lat="59.9003255" lon="17.6393473">
        <ele>21.767</ele>
        <time>2012-05-03T15:24:50Z</time>
      </trkpt>
      <trkpt lat="59.8997106" lon="17.6387241">
        <ele>22.7283</ele>
        <time>2012-05-03T15:25:00Z</time>
      </trkpt>
      <trkpt lat="59.8992951" lon="17.6383285">
        <ele>24.1703</ele>
        <time>2012-05-03T15:25:07Z</time>
      </trkpt>
      <trkpt lat="59.8988593" lon="17.6379363">
        <ele>24.1703</ele>
        <time>2012-05-03T15:25:15Z</time>
      </trkpt>
      <trkpt lat="59.8984007" lon="17.6375239">
        <ele>23.6896</ele>
        <time>2012-05-03T15:25:23Z</time>
      </trkpt>
      <trkpt lat="59.8979269" lon="17.6371235">
        <ele>20.8057</ele>
        <time>2012-05-03T15:25:31Z</time>
      </trkpt>
      <trkpt lat="59.8977537" lon="17.6370189">
        <ele>20.325</ele>
        <time>2012-05-03T15:25:34Z</time>
      </trkpt>
      <trkpt lat="59.8974333" lon="17.636806">
        <ele>22.2476</ele>
        <time>2012-05-03T15:25:40Z</time>
      </trkpt>
      <trkpt lat="59.897165" lon="17.6367878">
        <ele>22.7283</ele>
        <time>2012-05-03T15:25:45Z</time>
      </trkpt>
      <trkpt lat="59.8971138" lon="17.6367696">
        <ele>23.209</ele>
        <time>2012-05-03T15:25:46Z</time>
      </trkpt>
      <trkpt lat="59.8966731" lon="17.6365739">
        <ele>23.6896</ele>
        <time>2012-05-03T15:25:54Z</time>
      </trkpt>
      <trkpt lat="59.8961765" lon="17.6363951">
        <ele>24.1703</ele>
        <time>2012-05-03T15:26:02Z</time>
      </trkpt>
      <trkpt lat="59.8958266" lon="17.6363407">
        <ele>25.1317</ele>
        <time>2012-05-03T15:26:07Z</time>
      </trkpt>
      <trkpt lat="59.8954865" lon="17.6364708">
        <ele>25.6123</ele>
        <time>2012-05-03T15:26:12Z</time>
      </trkpt>
      <trkpt lat="59.8949751" lon="17.6368115">
        <ele>27.0543</ele>
        <time>2012-05-03T15:26:19Z</time>
      </trkpt>
      <trkpt lat="59.8944643" lon="17.6371618">
        <ele>28.9769</ele>
        <time>2012-05-03T15:26:26Z</time>
      </trkpt>
      <trkpt lat="59.893868" lon="17.6375773">
        <ele>30.8995</ele>
        <time>2012-05-03T15:26:34Z</time>
      </trkpt>
      <trkpt lat="59.8932781" lon="17.6379754">
        <ele>32.3416</ele>
        <time>2012-05-03T15:26:42Z</time>
      </trkpt>
      <trkpt lat="59.8928672" lon="17.6381688">
        <ele>30.4188</ele>
        <time>2012-05-03T15:26:47Z</time>
      </trkpt>
      <trkpt lat="59.8923165" lon="17.6381724">
        <ele>28.0155</ele>
        <time>2012-05-03T15:26:53Z</time>
      </trkpt>
      <trkpt lat="59.8922228" lon="17.6381896">
        <ele>27.5349</ele>
        <time>2012-05-03T15:26:54Z</time>
      </trkpt>
      <trkpt lat="59.8920413" lon="17.6382962">
        <ele>27.5349</ele>
        <time>2012-05-03T15:26:56Z</time>
      </trkpt>
      <trkpt lat="59.8915798" lon="17.638407">
        <ele>25.6123</ele>
        <time>2012-05-03T15:27:01Z</time>
      </trkpt>
      <trkpt lat="59.8909421" lon="17.6383777">
        <ele>24.1703</ele>
        <time>2012-05-03T15:27:08Z</time>
      </trkpt>
      <trkpt lat="59.8902994" lon="17.6382341">
        <ele>24.1703</ele>
        <time>2012-05-03T15:27:15Z</time>
      </trkpt>
      <trkpt lat="59.8896493" lon="17.6380044">
        <ele>26.5736</ele>
        <time>2012-05-03T15:27:22Z</time>
      </trkpt>
      <trkpt lat="59.8890343" lon="17.6378207">
        <ele>28.0155</ele>
        <time>2012-05-03T15:27:29Z</time>
      </trkpt>
      <trkpt lat="59.8886382" lon="17.6378504">
        <ele>28.4962</ele>
        <time>2012-05-03T15:27:34Z</time>
      </trkpt>
      <trkpt lat="59.888144" lon="17.6378653">
        <ele>28.4962</ele>
        <time>2012-05-03T15:27:40Z</time>
      </trkpt>
      <trkpt lat="59.8876589" lon="17.6377481">
        <ele>26.5736</ele>
        <time>2012-05-03T15:27:46Z</time>
      </trkpt>
      <trkpt lat="59.8872541" lon="17.637552">
        <ele>25.6123</ele>
        <time>2012-05-03T15:27:51Z</time>
      </trkpt>
      <trkpt lat="59.8866772" lon="17.6373535">
        <ele>26.0929</ele>
        <time>2012-05-03T15:27:58Z</time>
      </trkpt>
      <trkpt lat="59.8861337" lon="17.6371963">
        <ele>23.6896</ele>
        <time>2012-05-03T15:28:05Z</time>
      </trkpt>
      <trkpt lat="59.8857177" lon="17.6368604">
        <ele>24.1703</ele>
        <time>2012-05-03T15:28:11Z</time>
      </trkpt>
      <trkpt lat="59.8852244" lon="17.6364159">
        <ele>25.6123</ele>
        <time>2012-05-03T15:28:18Z</time>
      </trkpt>
      <trkpt lat="59.8850764" lon="17.6362924">
        <ele>24.1703</ele>
        <time>2012-05-03T15:28:20Z</time>
      </trkpt>
      <trkpt lat="59.8849312" lon="17.6362225">
        <ele>24.651</ele>
        <time>2012-05-03T15:28:22Z</time>
      </trkpt>
      <trkpt lat="59.8844609" lon="17.6358756">
        <ele>19.8444</ele>
        <time>2012-05-03T15:28:28Z</time>
      </trkpt>
      <trkpt lat="59.8838646" lon="17.6355959">
        <ele>19.3638</ele>
        <time>2012-05-03T15:28:35Z</time>
      </trkpt>
      <trkpt lat="59.8834461" lon="17.6355017">
        <ele>18.4023</ele>
        <time>2012-05-03T15:28:40Z</time>
      </trkpt>
      <trkpt lat="59.883026" lon="17.6354756">
        <ele>18.8831</ele>
        <time>2012-05-03T15:28:45Z</time>
      </trkpt>
      <trkpt lat="59.8824985" lon="17.6355902">
        <ele>16.4797</ele>
        <time>2012-05-03T15:28:51Z</time>
      </trkpt>
      <trkpt lat="59.8817847" lon="17.6358057">
        <ele>14.557</ele>
        <time>2012-05-03T15:28:59Z</time>
      </trkpt>
      <trkpt lat="59.8814377" lon="17.6356397">
        <ele>14.557</ele>
        <time>2012-05-03T15:29:03Z</time>
      </trkpt>
      <trkpt lat="59.8810829" lon="17.6355725">
        <ele>14.0764</ele>
        <time>2012-05-03T15:29:07Z</time>
      </trkpt>
      <trkpt lat="59.8802831" lon="17.6356366">
        <ele>12.6344</ele>
        <time>2012-05-03T15:29:16Z</time>
      </trkpt>
      <trkpt lat="59.8794168" lon="17.6356957">
        <ele>11.6732</ele>
        <time>2012-05-03T15:29:26Z</time>
      </trkpt>
      <trkpt lat="59.8785735" lon="17.6357383">
        <ele>11.6732</ele>
        <time>2012-05-03T15:29:36Z</time>
      </trkpt>
      <trkpt lat="59.8776351" lon="17.6357734">
        <ele>12.6344</ele>
        <time>2012-05-03T15:29:47Z</time>
      </trkpt>
      <trkpt lat="59.8768126" lon="17.6358115">
        <ele>15.0377</ele>
        <time>2012-05-03T15:29:57Z</time>
      </trkpt>
      <trkpt lat="59.8760803" lon="17.6358983">
        <ele>15.5184</ele>
        <time>2012-05-03T15:30:06Z</time>
      </trkpt>
      <trkpt lat="59.8755198" lon="17.6360859">
        <ele>15.5184</ele>
        <time>2012-05-03T15:30:13Z</time>
      </trkpt>
      <trkpt lat="59.8751933" lon="17.6362772">
        <ele>15.5184</ele>
        <time>2012-05-03T15:30:18Z</time>
      </trkpt>
      <trkpt lat="59.8749179" lon="17.6365058">
        <ele>15.0377</ele>
        <time>2012-05-03T15:30:23Z</time>
      </trkpt>
      <trkpt lat="59.8744854" lon="17.6369111">
        <ele>14.0764</ele>
        <time>2012-05-03T15:30:30Z</time>
      </trkpt>
      <trkpt lat="59.8741603" lon="17.6374724">
        <ele>13.1151</ele>
        <time>2012-05-03T15:30:36Z</time>
      </trkpt>
      <trkpt lat="59.8736545" lon="17.6381807">
        <ele>13.5958</ele>
        <time>2012-05-03T15:30:45Z</time>
      </trkpt>
      <trkpt lat="59.8735842" lon="17.6385514">
        <ele>13.5958</ele>
        <time>2012-05-03T15:30:49Z</time>
      </trkpt>
      <trkpt lat="59.8736116" lon="17.6386506">
        <ele>13.5958</ele>
        <time>2012-05-03T15:30:50Z</time>
      </trkpt>
      <trkpt lat="59.873929" lon="17.6396343">
        <ele>14.0764</ele>
        <time>2012-05-03T15:31:00Z</time>
      </trkpt>
      <trkpt lat="59.874166" lon="17.6402796">
        <ele>15.999</ele>
        <time>2012-05-03T15:31:07Z</time>
      </trkpt>
      <trkpt lat="59.8743953" lon="17.6408796">
        <ele>17.4412</ele>
        <time>2012-05-03T15:31:14Z</time>
      </trkpt>
      <trkpt lat="59.8746354" lon="17.6413959">
        <ele>17.4412</ele>
        <time>2012-05-03T15:31:21Z</time>
      </trkpt>
      <trkpt lat="59.8749549" lon="17.6419483">
        <ele>18.4023</ele>
        <time>2012-05-03T15:31:29Z</time>
      </trkpt>
      <trkpt lat="59.8750853" lon="17.6421944">
        <ele>18.4023</ele>
        <time>2012-05-03T15:31:33Z</time>
      </trkpt>
      <trkpt lat="59.8751543" lon="17.6423591">
        <ele>18.4023</ele>
        <time>2012-05-03T15:31:35Z</time>
      </trkpt>
      <trkpt lat="59.8755017" lon="17.6427623">
        <ele>15.5184</ele>
        <time>2012-05-03T15:31:41Z</time>
      </trkpt>
      <trkpt lat="59.8757757" lon="17.6430742">
        <ele>14.0764</ele>
        <time>2012-05-03T15:31:45Z</time>
      </trkpt>
      <trkpt lat="59.8759353" lon="17.6433979">
        <ele>14.557</ele>
        <time>2012-05-03T15:31:48Z</time>
      </trkpt>
      <trkpt lat="59.8760518" lon="17.6438701">
        <ele>14.557</ele>
        <time>2012-05-03T15:31:53Z</time>
      </trkpt>
      <trkpt lat="59.8760917" lon="17.6439426">
        <ele>15.999</ele>
        <time>2012-05-03T15:31:54Z</time>
      </trkpt>
      <trkpt lat="59.8763749" lon="17.6444078">
        <ele>20.325</ele>
        <time>2012-05-03T15:32:02Z</time>
      </trkpt>
      <trkpt lat="59.8764702" lon="17.6445663">
        <ele>20.8057</ele>
        <time>2012-05-03T15:32:05Z</time>
      </trkpt>
      <trkpt lat="59.8765835" lon="17.6447149">
        <ele>20.8057</ele>
        <time>2012-05-03T15:32:08Z</time>
      </trkpt>
      <trkpt lat="59.8768632" lon="17.6449438">
        <ele>21.2864</ele>
        <time>2012-05-03T15:32:15Z</time>
      </trkpt>
      <trkpt lat="59.8770963" lon="17.6451051">
        <ele>23.6896</ele>
        <time>2012-05-03T15:32:20Z</time>
      </trkpt>
      <trkpt lat="59.877192" lon="17.645178">
        <ele>23.209</ele>
        <time>2012-05-03T15:32:22Z</time>
      </trkpt>
      <trkpt lat="59.8775231" lon="17.6453023">
        <ele>20.8057</ele>
        <time>2012-05-03T15:32:29Z</time>
      </trkpt>
      <trkpt lat="59.8778138" lon="17.6454178">
        <ele>19.8444</ele>
        <time>2012-05-03T15:32:35Z</time>
      </trkpt>
      <trkpt lat="59.8781551" lon="17.6455018">
        <ele>20.8057</ele>
        <time>2012-05-03T15:32:42Z</time>
      </trkpt>
      <trkpt lat="59.8784976" lon="17.6455519">
        <ele>20.8057</ele>
        <time>2012-05-03T15:32:49Z</time>
      </trkpt>
      <trkpt lat="59.8788201" lon="17.6456028">
        <ele>20.8057</ele>
        <time>2012-05-03T15:32:55Z</time>
      </trkpt>
      <trkpt lat="59.8789996" lon="17.6456054">
        <ele>19.3638</ele>
        <time>2012-05-03T15:32:59Z</time>
      </trkpt>
      <trkpt lat="59.879071" lon="17.6457427">
        <ele>18.8831</ele>
        <time>2012-05-03T15:33:03Z</time>
      </trkpt>
      <trkpt lat="59.8790856" lon="17.64604">
        <ele>17.9218</ele>
        <time>2012-05-03T15:33:08Z</time>
      </trkpt>
      <trkpt lat="59.8791186" lon="17.646501">
        <ele>15.999</ele>
        <time>2012-05-03T15:33:13Z</time>
      </trkpt>
      <trkpt lat="59.8791358" lon="17.6468497">
        <ele>17.4412</ele>
        <time>2012-05-03T15:33:16Z</time>
      </trkpt>
      <trkpt lat="59.8791554" lon="17.6473231">
        <ele>17.9218</ele>
        <time>2012-05-03T15:33:20Z</time>
      </trkpt>
      <trkpt lat="59.8791559" lon="17.6481737">
        <ele>17.9218</ele>
        <time>2012-05-03T15:33:27Z</time>
      </trkpt>
      <trkpt lat="59.8791236" lon="17.6487777">
        <ele>18.8831</ele>
        <time>2012-05-03T15:33:32Z</time>
      </trkpt>
      <trkpt lat="59.8790967" lon="17.6495965">
        <ele>15.999</ele>
        <time>2012-05-03T15:33:39Z</time>
      </trkpt>
      <trkpt lat="59.8790986" lon="17.6499502">
        <ele>15.5184</ele>
        <time>2012-05-03T15:33:42Z</time>
      </trkpt>
      <trkpt lat="59.8790618" lon="17.6505156">
        <ele>14.0764</ele>
        <time>2012-05-03T15:33:47Z</time>
      </trkpt>
      <trkpt lat="59.8790398" lon="17.6510712">
        <ele>11.6732</ele>
        <time>2012-05-03T15:33:52Z</time>
      </trkpt>
      <trkpt lat="59.8790331" lon="17.6515284">
        <ele>11.6732</ele>
        <time>2012-05-03T15:33:56Z</time>
      </trkpt>
      <trkpt lat="59.879062" lon="17.6519869">
        <ele>11.6732</ele>
        <time>2012-05-03T15:34:00Z</time>
      </trkpt>
      <trkpt lat="59.8790822" lon="17.652453">
        <ele>11.6732</ele>
        <time>2012-05-03T15:34:04Z</time>
      </trkpt>
      <trkpt lat="59.8790755" lon="17.6528286">
        <ele>11.6732</ele>
        <time>2012-05-03T15:34:07Z</time>
      </trkpt>
      <trkpt lat="59.8790844" lon="17.6536418">
        <ele>12.6344</ele>
        <time>2012-05-03T15:34:14Z</time>
      </trkpt>
      <trkpt lat="59.879081" lon="17.6539909">
        <ele>12.1538</ele>
        <time>2012-05-03T15:34:17Z</time>
      </trkpt>
      <trkpt lat="59.8790804" lon="17.6547565">
        <ele>10.2312</ele>
        <time>2012-05-03T15:34:23Z</time>
      </trkpt>
      <trkpt lat="59.8791116" lon="17.6554828">
        <ele>8.78918</ele>
        <time>2012-05-03T15:34:28Z</time>
      </trkpt>
      <trkpt lat="59.8790978" lon="17.6558282">
        <ele>8.78918</ele>
        <time>2012-05-03T15:34:30Z</time>
      </trkpt>
      <trkpt lat="59.8791008" lon="17.6565612">
        <ele>9.2699</ele>
        <time>2012-05-03T15:34:36Z</time>
      </trkpt>
      <trkpt lat="59.8790974" lon="17.6572813">
        <ele>11.1925</ele>
        <time>2012-05-03T15:34:43Z</time>
      </trkpt>
      <trkpt lat="59.8790915" lon="17.6577945">
        <ele>11.6732</ele>
        <time>2012-05-03T15:34:48Z</time>
      </trkpt>
      <trkpt lat="59.8790855" lon="17.6580058">
        <ele>11.1925</ele>
        <time>2012-05-03T15:34:50Z</time>
      </trkpt>
      <trkpt lat="59.8789793" lon="17.6584965">
        <ele>12.1538</ele>
        <time>2012-05-03T15:34:55Z</time>
      </trkpt>
      <trkpt lat="59.878786" lon="17.6587227">
        <ele>13.1151</ele>
        <time>2012-05-03T15:34:59Z</time>
      </trkpt>
      <trkpt lat="59.878708" lon="17.6589358">
        <ele>12.1538</ele>
        <time>2012-05-03T15:35:02Z</time>
      </trkpt>
      <trkpt lat="59.8787037" lon="17.6590382">
        <ele>11.6732</ele>
        <time>2012-05-03T15:35:03Z</time>
      </trkpt>
      <trkpt lat="59.8786869" lon="17.6600915">
        <ele>10.2312</ele>
        <time>2012-05-03T15:35:12Z</time>
      </trkpt>
      <trkpt lat="59.8786849" lon="17.6604547">
        <ele>10.7118</ele>
        <time>2012-05-03T15:35:15Z</time>
      </trkpt>
      <trkpt lat="59.8785844" lon="17.6607853">
        <ele>12.1538</ele>
        <time>2012-05-03T15:35:19Z</time>
      </trkpt>
      <trkpt lat="59.878494" lon="17.6608856">
        <ele>13.1151</ele>
        <time>2012-05-03T15:35:21Z</time>
      </trkpt>
      <trkpt lat="59.8782557" lon="17.6610561">
        <ele>14.0764</ele>
        <time>2012-05-03T15:35:26Z</time>
      </trkpt>
      <trkpt lat="59.8780438" lon="17.6613748">
        <ele>15.5184</ele>
        <time>2012-05-03T15:35:31Z</time>
      </trkpt>
      <trkpt lat="59.8779863" lon="17.6617962">
        <ele>16.4797</ele>
        <time>2012-05-03T15:35:35Z</time>
      </trkpt>
      <trkpt lat="59.8779842" lon="17.6625501">
        <ele>15.0377</ele>
        <time>2012-05-03T15:35:42Z</time>
      </trkpt>
      <trkpt lat="59.8779496" lon="17.663361">
        <ele>14.0764</ele>
        <time>2012-05-03T15:35:50Z</time>
      </trkpt>
      <trkpt lat="59.8778687" lon="17.6637326">
        <ele>14.0764</ele>
        <time>2012-05-03T15:35:54Z</time>
      </trkpt>
      <trkpt lat="59.8775439" lon="17.6646749">
        <ele>15.5184</ele>
        <time>2012-05-03T15:36:05Z</time>
      </trkpt>
      <trkpt lat="59.8773637" lon="17.665095">
        <ele>16.4797</ele>
        <time>2012-05-03T15:36:10Z</time>
      </trkpt>
      <trkpt lat="59.8771728" lon="17.6653313">
        <ele>17.9218</ele>
        <time>2012-05-03T15:36:14Z</time>
      </trkpt>
      <trkpt lat="59.8767701" lon="17.6656097">
        <ele>19.8444</ele>
        <time>2012-05-03T15:36:21Z</time>
      </trkpt>
      <trkpt lat="59.8766041" lon="17.6659382">
        <ele>20.8057</ele>
        <time>2012-05-03T15:36:25Z</time>
      </trkpt>
      <trkpt lat="59.8766172" lon="17.6662559">
        <ele>20.8057</ele>
        <time>2012-05-03T15:36:28Z</time>
      </trkpt>
      <trkpt lat="59.8766576" lon="17.6664123">
        <ele>20.8057</ele>
        <time>2012-05-03T15:36:30Z</time>
      </trkpt>
      <trkpt lat="59.8768632" lon="17.6670733">
        <ele>21.767</ele>
        <time>2012-05-03T15:36:39Z</time>
      </trkpt>
      <trkpt lat="59.8770477" lon="17.6677891">
        <ele>21.2864</ele>
        <time>2012-05-03T15:36:47Z</time>
      </trkpt>
      <trkpt lat="59.8771399" lon="17.6685207">
        <ele>20.325</ele>
        <time>2012-05-03T15:36:54Z</time>
      </trkpt>
      <trkpt lat="59.8771475" lon="17.6686278">
        <ele>20.325</ele>
        <time>2012-05-03T15:36:55Z</time>
      </trkpt>
      <trkpt lat="59.8771239" lon="17.6695831">
        <ele>19.8444</ele>
        <time>2012-05-03T15:37:04Z</time>
      </trkpt>
      <trkpt lat="59.8771153" lon="17.6697949">
        <ele>19.8444</ele>
        <time>2012-05-03T15:37:06Z</time>
      </trkpt>
      <trkpt lat="59.877005" lon="17.6704953">
        <ele>19.3638</ele>
        <time>2012-05-03T15:37:13Z</time>
      </trkpt>
      <trkpt lat="59.8769828" lon="17.6707216">
        <ele>19.3638</ele>
        <time>2012-05-03T15:37:15Z</time>
      </trkpt>
      <trkpt lat="59.8768297" lon="17.6710339">
        <ele>19.8444</ele>
        <time>2012-05-03T15:37:19Z</time>
      </trkpt>
      <trkpt lat="59.8763202" lon="17.6714423">
        <ele>21.767</ele>
        <time>2012-05-03T15:37:28Z</time>
      </trkpt>
      <trkpt lat="59.8760846" lon="17.6716841">
        <ele>22.2476</ele>
        <time>2012-05-03T15:37:32Z</time>
      </trkpt>
      <trkpt lat="59.875725" lon="17.6723101">
        <ele>23.209</ele>
        <time>2012-05-03T15:37:39Z</time>
      </trkpt>
      <trkpt lat="59.8756094" lon="17.6724683">
        <ele>23.209</ele>
        <time>2012-05-03T15:37:41Z</time>
      </trkpt>
      <trkpt lat="59.8754888" lon="17.672591">
        <ele>23.209</ele>
        <time>2012-05-03T15:37:43Z</time>
      </trkpt>
      <trkpt lat="59.8753154" lon="17.6730147">
        <ele>22.7283</ele>
        <time>2012-05-03T15:37:47Z</time>
      </trkpt>
      <trkpt lat="59.8750733" lon="17.6735276">
        <ele>22.7283</ele>
        <time>2012-05-03T15:37:52Z</time>
      </trkpt>
      <trkpt lat="59.8749704" lon="17.6736915">
        <ele>22.7283</ele>
        <time>2012-05-03T15:37:55Z</time>
      </trkpt>
      <trkpt lat="59.8749239" lon="17.6737562">
        <ele>22.7283</ele>
        <time>2012-05-03T15:37:58Z</time>
      </trkpt>
      <trkpt lat="59.8747726" lon="17.6738426">
        <ele>24.1703</ele>
        <time>2012-05-03T15:38:03Z</time>
      </trkpt>
      <trkpt lat="59.8746788" lon="17.6740367">
        <ele>24.1703</ele>
        <time>2012-05-03T15:38:06Z</time>
      </trkpt>
      <trkpt lat="59.8747415" lon="17.6743333">
        <ele>24.1703</ele>
        <time>2012-05-03T15:38:09Z</time>
      </trkpt>
      <trkpt lat="59.8747864" lon="17.6744267">
        <ele>24.1703</ele>
        <time>2012-05-03T15:38:10Z</time>
      </trkpt>
      <trkpt lat="59.875244" lon="17.6754726">
        <ele>25.1317</ele>
        <time>2012-05-03T15:38:20Z</time>
      </trkpt>
      <trkpt lat="59.8756664" lon="17.6764524">
        <ele>26.0929</ele>
        <time>2012-05-03T15:38:30Z</time>
      </trkpt>
      <trkpt lat="59.8760504" lon="17.6772748">
        <ele>27.5349</ele>
        <time>2012-05-03T15:38:40Z</time>
      </trkpt>
      <trkpt lat="59.8761323" lon="17.6775126">
        <ele>28.0155</ele>
        <time>2012-05-03T15:38:43Z</time>
      </trkpt>
      <trkpt lat="59.8761137" lon="17.6778767">
        <ele>27.0543</ele>
        <time>2012-05-03T15:38:47Z</time>
      </trkpt>
      <trkpt lat="59.875966" lon="17.6780395">
        <ele>27.0543</ele>
        <time>2012-05-03T15:38:50Z</time>
      </trkpt>
      <trkpt lat="59.875909" lon="17.6780756">
        <ele>27.0543</ele>
        <time>2012-05-03T15:38:51Z</time>
      </trkpt>
      <trkpt lat="59.8754373" lon="17.6782172">
        <ele>27.0543</ele>
        <time>2012-05-03T15:38:58Z</time>
      </trkpt>
      <trkpt lat="59.8748881" lon="17.6782403">
        <ele>26.5736</ele>
        <time>2012-05-03T15:39:05Z</time>
      </trkpt>
      <trkpt lat="59.8741199" lon="17.6782818">
        <ele>26.0929</ele>
        <time>2012-05-03T15:39:14Z</time>
      </trkpt>
      <trkpt lat="59.8732302" lon="17.6784673">
        <ele>25.6123</ele>
        <time>2012-05-03T15:39:24Z</time>
      </trkpt>
      <trkpt lat="59.8724084" lon="17.6787006">
        <ele>24.651</ele>
        <time>2012-05-03T15:39:33Z</time>
      </trkpt>
      <trkpt lat="59.8714654" lon="17.6789528">
        <ele>23.209</ele>
        <time>2012-05-03T15:39:43Z</time>
      </trkpt>
      <trkpt lat="59.8704202" lon="17.6792429">
        <ele>21.767</ele>
        <time>2012-05-03T15:39:54Z</time>
      </trkpt>
      <trkpt lat="59.8697673" lon="17.6794825">
        <ele>19.8444</ele>
        <time>2012-05-03T15:40:01Z</time>
      </trkpt>
      <trkpt lat="59.8689098" lon="17.6798617">
        <ele>17.9218</ele>
        <time>2012-05-03T15:40:10Z</time>
      </trkpt>
      <trkpt lat="59.8679525" lon="17.6803089">
        <ele>16.9604</ele>
        <time>2012-05-03T15:40:20Z</time>
      </trkpt>
      <trkpt lat="59.8671385" lon="17.6806959">
        <ele>16.4797</ele>
        <time>2012-05-03T15:40:29Z</time>
      </trkpt>
      <trkpt lat="59.8662855" lon="17.6810922">
        <ele>15.5184</ele>
        <time>2012-05-03T15:40:39Z</time>
      </trkpt>
      <trkpt lat="59.8659446" lon="17.6812989">
        <ele>15.5184</ele>
        <time>2012-05-03T15:40:43Z</time>
      </trkpt>
      <trkpt lat="59.8656193" lon="17.6812515">
        <ele>14.557</ele>
        <time>2012-05-03T15:40:47Z</time>
      </trkpt>
      <trkpt lat="59.865453" lon="17.6812408">
        <ele>14.557</ele>
        <time>2012-05-03T15:40:49Z</time>
      </trkpt>
      <trkpt lat="59.8649703" lon="17.6813122">
        <ele>13.1151</ele>
        <time>2012-05-03T15:40:55Z</time>
      </trkpt>
      <trkpt lat="59.8647831" lon="17.6816184">
        <ele>13.5958</ele>
        <time>2012-05-03T15:40:58Z</time>
      </trkpt>
      <trkpt lat="59.8646496" lon="17.6817885">
        <ele>14.0764</ele>
        <time>2012-05-03T15:41:00Z</time>
      </trkpt>
      <trkpt lat="59.8639519" lon="17.6823793">
        <ele>15.0377</ele>
        <time>2012-05-03T15:41:10Z</time>
      </trkpt>
      <trkpt lat="59.8636214" lon="17.6825985">
        <ele>16.4797</ele>
        <time>2012-05-03T15:41:15Z</time>
      </trkpt>
      <trkpt lat="59.8632653" lon="17.6828408">
        <ele>16.4797</ele>
        <time>2012-05-03T15:41:21Z</time>
      </trkpt>
      <trkpt lat="59.8627837" lon="17.6831921">
        <ele>14.0764</ele>
        <time>2012-05-03T15:41:28Z</time>
      </trkpt>
      <trkpt lat="59.8621591" lon="17.6836411">
        <ele>12.6344</ele>
        <time>2012-05-03T15:41:37Z</time>
      </trkpt>
      <trkpt lat="59.8614106" lon="17.6841871">
        <ele>12.1538</ele>
        <time>2012-05-03T15:41:48Z</time>
      </trkpt>
      <trkpt lat="59.8609606" lon="17.6845771">
        <ele>11.1925</ele>
        <time>2012-05-03T15:41:55Z</time>
      </trkpt>
      <trkpt lat="59.8605651" lon="17.6849753">
        <ele>11.1925</ele>
        <time>2012-05-03T15:42:02Z</time>
      </trkpt>
      <trkpt lat="59.860173" lon="17.6854233">
        <ele>11.6732</ele>
        <time>2012-05-03T15:42:09Z</time>
      </trkpt>
      <trkpt lat="59.8597964" lon="17.685907">
        <ele>11.6732</ele>
        <time>2012-05-03T15:42:16Z</time>
      </trkpt>
      <trkpt lat="59.8596357" lon="17.6860892">
        <ele>11.6732</ele>
        <time>2012-05-03T15:42:19Z</time>
      </trkpt>
      <trkpt lat="59.8594964" lon="17.6864418">
        <ele>9.75061</ele>
        <time>2012-05-03T15:42:23Z</time>
      </trkpt>
      <trkpt lat="59.8593053" lon="17.6866354">
        <ele>10.7118</ele>
        <time>2012-05-03T15:42:27Z</time>
      </trkpt>
      <trkpt lat="59.8592038" lon="17.6866482">
        <ele>10.7118</ele>
        <time>2012-05-03T15:42:32Z</time>
      </trkpt>
      <trkpt lat="59.8591747" lon="17.6866647">
        <ele>11.1925</ele>
        <time>2012-05-03T15:42:34Z</time>
      </trkpt>
      <trkpt lat="59.8590634" lon="17.686694">
        <ele>10.2312</ele>
        <time>2012-05-03T15:42:39Z</time>
      </trkpt>
      <trkpt lat="59.8590129" lon="17.6870788">
        <ele>7.34717</ele>
        <time>2012-05-03T15:42:44Z</time>
      </trkpt>
      <trkpt lat="59.8590961" lon="17.6873021">
        <ele>7.82788</ele>
        <time>2012-05-03T15:42:46Z</time>
      </trkpt>
      <trkpt lat="59.8591772" lon="17.6875544">
        <ele>6.38586</ele>
        <time>2012-05-03T15:42:48Z</time>
      </trkpt>
      <trkpt lat="59.8593352" lon="17.688166">
        <ele>11.1925</ele>
        <time>2012-05-03T15:42:54Z</time>
      </trkpt>
      <trkpt lat="59.8593597" lon="17.6883384">
        <ele>10.2312</ele>
        <time>2012-05-03T15:42:56Z</time>
      </trkpt>
      <trkpt lat="59.8593706" lon="17.6885223">
        <ele>8.78918</ele>
        <time>2012-05-03T15:42:58Z</time>
      </trkpt>
      <trkpt lat="59.8595491" lon="17.6894041">
        <ele>8.78918</ele>
        <time>2012-05-03T15:43:07Z</time>
      </trkpt>
      <trkpt lat="59.859615" lon="17.6900683">
        <ele>6.38586</ele>
        <time>2012-05-03T15:43:13Z</time>
      </trkpt>
      <trkpt lat="59.85977" lon="17.6908712">
        <ele>6.38586</ele>
        <time>2012-05-03T15:43:20Z</time>
      </trkpt>
      <trkpt lat="59.8599109" lon="17.691592">
        <ele>6.38586</ele>
        <time>2012-05-03T15:43:26Z</time>
      </trkpt>
      <trkpt lat="59.8600315" lon="17.6924075">
        <ele>10.7118</ele>
        <time>2012-05-03T15:43:33Z</time>
      </trkpt>
      <trkpt lat="59.8602387" lon="17.6928946">
        <ele>15.0377</ele>
        <time>2012-05-03T15:43:38Z</time>
      </trkpt>
      <trkpt lat="59.8604654" lon="17.6932458">
        <ele>19.3638</ele>
        <time>2012-05-03T15:43:42Z</time>
      </trkpt>
      <trkpt lat="59.860531" lon="17.693712">
        <ele>19.8444</ele>
        <time>2012-05-03T15:43:46Z</time>
      </trkpt>
      <trkpt lat="59.8605863" lon="17.6946092">
        <ele>15.5184</ele>
        <time>2012-05-03T15:43:53Z</time>
      </trkpt>
      <trkpt lat="59.8607215" lon="17.6955857">
        <ele>10.7118</ele>
        <time>2012-05-03T15:44:01Z</time>
      </trkpt>
      <trkpt lat="59.8608135" lon="17.6960518">
        <ele>10.2312</ele>
        <time>2012-05-03T15:44:05Z</time>
      </trkpt>
      <trkpt lat="59.8608422" lon="17.6966817">
        <ele>10.2312</ele>
        <time>2012-05-03T15:44:10Z</time>
      </trkpt>
      <trkpt lat="59.8608454" lon="17.6968065">
        <ele>10.7118</ele>
        <time>2012-05-03T15:44:11Z</time>
      </trkpt>
      <trkpt lat="59.8609546" lon="17.6973545">
        <ele>11.1925</ele>
        <time>2012-05-03T15:44:16Z</time>
      </trkpt>
      <trkpt lat="59.8610078" lon="17.697557">
        <ele>12.1538</ele>
        <time>2012-05-03T15:44:18Z</time>
      </trkpt>
      <trkpt lat="59.8612357" lon="17.6982637">
        <ele>14.557</ele>
        <time>2012-05-03T15:44:25Z</time>
      </trkpt>
      <trkpt lat="59.8612686" lon="17.6983627">
        <ele>14.0764</ele>
        <time>2012-05-03T15:44:26Z</time>
      </trkpt>
      <trkpt lat="59.8614374" lon="17.6986848">
        <ele>13.5958</ele>
        <time>2012-05-03T15:44:30Z</time>
      </trkpt>
      <trkpt lat="59.8615824" lon="17.6991613">
        <ele>15.0377</ele>
        <time>2012-05-03T15:44:35Z</time>
      </trkpt>
      <trkpt lat="59.8616732" lon="17.6999437">
        <ele>14.0764</ele>
        <time>2012-05-03T15:44:42Z</time>
      </trkpt>
      <trkpt lat="59.8616787" lon="17.700789">
        <ele>12.6344</ele>
        <time>2012-05-03T15:44:49Z</time>
      </trkpt>
      <trkpt lat="59.861798" lon="17.7015883">
        <ele>11.1925</ele>
        <time>2012-05-03T15:44:56Z</time>
      </trkpt>
      <trkpt lat="59.8620268" lon="17.7026935">
        <ele>10.2312</ele>
        <time>2012-05-03T15:45:06Z</time>
      </trkpt>
      <trkpt lat="59.8620589" lon="17.7032734">
        <ele>7.34717</ele>
        <time>2012-05-03T15:45:11Z</time>
      </trkpt>
      <trkpt lat="59.8620331" lon="17.7039292">
        <ele>8.30859</ele>
        <time>2012-05-03T15:45:17Z</time>
      </trkpt>
      <trkpt lat="59.8619539" lon="17.7040258">
        <ele>9.2699</ele>
        <time>2012-05-03T15:45:20Z</time>
      </trkpt>
      <trkpt lat="59.8619031" lon="17.7039929">
        <ele>9.75061</ele>
        <time>2012-05-03T15:45:21Z</time>
      </trkpt>
      <trkpt lat="59.8615866" lon="17.7038896">
        <ele>13.5958</ele>
        <time>2012-05-03T15:45:28Z</time>
      </trkpt>
      <trkpt lat="59.8612602" lon="17.7037839">
        <ele>15.0377</ele>
        <time>2012-05-03T15:45:36Z</time>
      </trkpt>
      <trkpt lat="59.8609954" lon="17.7037204">
        <ele>16.9604</ele>
        <time>2012-05-03T15:45:43Z</time>
      </trkpt>
      <trkpt lat="59.860756" lon="17.7038011">
        <ele>18.8831</ele>
        <time>2012-05-03T15:45:50Z</time>
      </trkpt>
      <trkpt lat="59.8604717" lon="17.703941">
        <ele>19.3638</ele>
        <time>2012-05-03T15:45:59Z</time>
      </trkpt>
      <trkpt lat="59.8602176" lon="17.7040637">
        <ele>18.8831</ele>
        <time>2012-05-03T15:46:06Z</time>
      </trkpt>
      <trkpt lat="59.8598304" lon="17.704232">
        <ele>17.4412</ele>
        <time>2012-05-03T15:46:14Z</time>
      </trkpt>
      <trkpt lat="59.8593515" lon="17.7044581">
        <ele>15.999</ele>
        <time>2012-05-03T15:46:23Z</time>
      </trkpt>
      <trkpt lat="59.8591588" lon="17.704603">
        <ele>15.0377</ele>
        <time>2012-05-03T15:46:27Z</time>
      </trkpt>
      <trkpt lat="59.8589437" lon="17.7049445">
        <ele>12.6344</ele>
        <time>2012-05-03T15:46:33Z</time>
      </trkpt>
      <trkpt lat="59.858836" lon="17.7052501">
        <ele>12.1538</ele>
        <time>2012-05-03T15:46:37Z</time>
      </trkpt>
      <trkpt lat="59.8586653" lon="17.7060028">
        <ele>10.2312</ele>
        <time>2012-05-03T15:46:44Z</time>
      </trkpt>
      <trkpt lat="59.858541" lon="17.70682">
        <ele>9.2699</ele>
        <time>2012-05-03T15:46:51Z</time>
      </trkpt>
      <trkpt lat="59.8584501" lon="17.7076563">
        <ele>7.82788</ele>
        <time>2012-05-03T15:46:58Z</time>
      </trkpt>
      <trkpt lat="59.8583413" lon="17.7084764">
        <ele>8.78918</ele>
        <time>2012-05-03T15:47:06Z</time>
      </trkpt>
      <trkpt lat="59.8583288" lon="17.7085681">
        <ele>9.2699</ele>
        <time>2012-05-03T15:47:07Z</time>
      </trkpt>
      <trkpt lat="59.8582988" lon="17.7093746">
        <ele>10.2312</ele>
        <time>2012-05-03T15:47:16Z</time>
      </trkpt>
      <trkpt lat="59.858307" lon="17.7095604">
        <ele>11.1925</ele>
        <time>2012-05-03T15:47:18Z</time>
      </trkpt>
      <trkpt lat="59.858379" lon="17.7101984">
        <ele>14.0764</ele>
        <time>2012-05-03T15:47:25Z</time>
      </trkpt>
      <trkpt lat="59.8584699" lon="17.710917">
        <ele>14.557</ele>
        <time>2012-05-03T15:47:32Z</time>
      </trkpt>
      <trkpt lat="59.8584775" lon="17.7112378">
        <ele>14.557</ele>
        <time>2012-05-03T15:47:35Z</time>
      </trkpt>
      <trkpt lat="59.8584061" lon="17.7117812">
        <ele>14.0764</ele>
        <time>2012-05-03T15:47:40Z</time>
      </trkpt>
      <trkpt lat="59.85822" lon="17.7128094">
        <ele>12.6344</ele>
        <time>2012-05-03T15:47:49Z</time>
      </trkpt>
      <trkpt lat="59.8581367" lon="17.7135658">
        <ele>12.1538</ele>
        <time>2012-05-03T15:47:55Z</time>
      </trkpt>
      <trkpt lat="59.8579534" lon="17.7142258">
        <ele>12.1538</ele>
        <time>2012-05-03T15:48:01Z</time>
      </trkpt>
      <trkpt lat="59.8577216" lon="17.7150066">
        <ele>12.6344</ele>
        <time>2012-05-03T15:48:08Z</time>
      </trkpt>
      <trkpt lat="59.8575834" lon="17.7158958">
        <ele>12.1538</ele>
        <time>2012-05-03T15:48:15Z</time>
      </trkpt>
      <trkpt lat="59.8575854" lon="17.7165988">
        <ele>12.6344</ele>
        <time>2012-05-03T15:48:20Z</time>
      </trkpt>
      <trkpt lat="59.8576067" lon="17.7178433">
        <ele>11.6732</ele>
        <time>2012-05-03T15:48:29Z</time>
      </trkpt>
      <trkpt lat="59.8576093" lon="17.7193111">
        <ele>10.7118</ele>
        <time>2012-05-03T15:48:40Z</time>
      </trkpt>
      <trkpt lat="59.8576469" lon="17.7205649">
        <ele>11.6732</ele>
        <time>2012-05-03T15:48:50Z</time>
      </trkpt>
      <trkpt lat="59.8576386" lon="17.721181">
        <ele>13.1151</ele>
        <time>2012-05-03T15:48:56Z</time>
      </trkpt>
      <trkpt lat="59.8575906" lon="17.7217767">
        <ele>14.0764</ele>
        <time>2012-05-03T15:49:02Z</time>
      </trkpt>
      <trkpt lat="59.857453" lon="17.7222112">
        <ele>13.5958</ele>
        <time>2012-05-03T15:49:07Z</time>
      </trkpt>
      <trkpt lat="59.8571277" lon="17.7227589">
        <ele>15.999</ele>
        <time>2012-05-03T15:49:14Z</time>
      </trkpt>
      <trkpt lat="59.8567793" lon="17.723399">
        <ele>16.4797</ele>
        <time>2012-05-03T15:49:21Z</time>
      </trkpt>
      <trkpt lat="59.8563871" lon="17.7242063">
        <ele>14.557</ele>
        <time>2012-05-03T15:49:29Z</time>
      </trkpt>
      <trkpt lat="59.8560583" lon="17.7250157">
        <ele>13.5958</ele>
        <time>2012-05-03T15:49:37Z</time>
      </trkpt>
      <trkpt lat="59.8556869" lon="17.7259621">
        <ele>13.1151</ele>
        <time>2012-05-03T15:49:46Z</time>
      </trkpt>
      <trkpt lat="59.8552674" lon="17.7271622">
        <ele>13.1151</ele>
        <time>2012-05-03T15:49:57Z</time>
      </trkpt>
      <trkpt lat="59.8547566" lon="17.7284959">
        <ele>12.1538</ele>
        <time>2012-05-03T15:50:10Z</time>
      </trkpt>
      <trkpt lat="59.8543653" lon="17.7294905">
        <ele>10.7118</ele>
        <time>2012-05-03T15:50:20Z</time>
      </trkpt>
      <trkpt lat="59.8540538" lon="17.7303983">
        <ele>8.30859</ele>
        <time>2012-05-03T15:50:28Z</time>
      </trkpt>
      <trkpt lat="59.8538879" lon="17.7313161">
        <ele>6.38586</ele>
        <time>2012-05-03T15:50:34Z</time>
      </trkpt>
      <trkpt lat="59.8537523" lon="17.7324637">
        <ele>7.82788</ele>
        <time>2012-05-03T15:50:41Z</time>
      </trkpt>
      <trkpt lat="59.8536595" lon="17.7331859">
        <ele>6.38586</ele>
        <time>2012-05-03T15:50:46Z</time>
      </trkpt>
      <trkpt lat="59.8535086" lon="17.7337526">
        <ele>7.34717</ele>
        <time>2012-05-03T15:50:51Z</time>
      </trkpt>
      <trkpt lat="59.8533067" lon="17.734207">
        <ele>9.75061</ele>
        <time>2012-05-03T15:50:57Z</time>
      </trkpt>
      <trkpt lat="59.8530379" lon="17.7345544">
        <ele>10.7118</ele>
        <time>2012-05-03T15:51:04Z</time>
      </trkpt>
      <trkpt lat="59.8527022" lon="17.7349533">
        <ele>12.1538</ele>
        <time>2012-05-03T15:51:12Z</time>
      </trkpt>
      <trkpt lat="59.8523073" lon="17.7354346">
        <ele>11.6732</ele>
        <time>2012-05-03T15:51:20Z</time>
      </trkpt>
      <trkpt lat="59.851847" lon="17.7360528">
        <ele>12.6344</ele>
        <time>2012-05-03T15:51:29Z</time>
      </trkpt>
      <trkpt lat="59.8514888" lon="17.7366318">
        <ele>12.6344</ele>
        <time>2012-05-03T15:51:36Z</time>
      </trkpt>
      <trkpt lat="59.8511281" lon="17.7370233">
        <ele>13.5958</ele>
        <time>2012-05-03T15:51:42Z</time>
      </trkpt>
      <trkpt lat="59.8505147" lon="17.7375269">
        <ele>15.0377</ele>
        <time>2012-05-03T15:51:51Z</time>
      </trkpt>
      <trkpt lat="59.8498699" lon="17.7378872">
        <ele>15.999</ele>
        <time>2012-05-03T15:52:00Z</time>
      </trkpt>
      <trkpt lat="59.8490801" lon="17.7382027">
        <ele>15.0377</ele>
        <time>2012-05-03T15:52:11Z</time>
      </trkpt>
      <trkpt lat="59.8486002" lon="17.7384431">
        <ele>13.5958</ele>
        <time>2012-05-03T15:52:18Z</time>
      </trkpt>
      <trkpt lat="59.8481619" lon="17.7387211">
        <ele>12.6344</ele>
        <time>2012-05-03T15:52:24Z</time>
      </trkpt>
      <trkpt lat="59.8480027" lon="17.7387912">
        <ele>12.6344</ele>
        <time>2012-05-03T15:52:26Z</time>
      </trkpt>
      <trkpt lat="59.8478087" lon="17.7390242">
        <ele>12.1538</ele>
        <time>2012-05-03T15:52:29Z</time>
      </trkpt>
      <trkpt lat="59.8477728" lon="17.7393133">
        <ele>12.1538</ele>
        <time>2012-05-03T15:52:31Z</time>
      </trkpt>
      <trkpt lat="59.8477542" lon="17.7409755">
        <ele>11.6732</ele>
        <time>2012-05-03T15:52:42Z</time>
      </trkpt>
      <trkpt lat="59.8477376" lon="17.7424145">
        <ele>10.2312</ele>
        <time>2012-05-03T15:52:52Z</time>
      </trkpt>
      <trkpt lat="59.847718" lon="17.743716">
        <ele>10.2312</ele>
        <time>2012-05-03T15:53:01Z</time>
      </trkpt>
      <trkpt lat="59.8476905" lon="17.7453248">
        <ele>10.2312</ele>
        <time>2012-05-03T15:53:13Z</time>
      </trkpt>
      <trkpt lat="59.8476823" lon="17.7464976">
        <ele>13.1151</ele>
        <time>2012-05-03T15:53:23Z</time>
      </trkpt>
      <trkpt lat="59.8476681" lon="17.7473058">
        <ele>15.5184</ele>
        <time>2012-05-03T15:53:31Z</time>
      </trkpt>
      <trkpt lat="59.8476703" lon="17.7475902">
        <ele>15.5184</ele>
        <time>2012-05-03T15:53:34Z</time>
      </trkpt>
      <trkpt lat="59.8476754" lon="17.7484498">
        <ele>16.4797</ele>
        <time>2012-05-03T15:53:43Z</time>
      </trkpt>
      <trkpt lat="59.8477045" lon="17.7496064">
        <ele>15.5184</ele>
        <time>2012-05-03T15:53:55Z</time>
      </trkpt>
      <trkpt lat="59.8477583" lon="17.7505536">
        <ele>15.0377</ele>
        <time>2012-05-03T15:54:04Z</time>
      </trkpt>
      <trkpt lat="59.8478153" lon="17.7513292">
        <ele>13.1151</ele>
        <time>2012-05-03T15:54:11Z</time>
      </trkpt>
      <trkpt lat="59.8479438" lon="17.7523661">
        <ele>11.1925</ele>
        <time>2012-05-03T15:54:19Z</time>
      </trkpt>
      <trkpt lat="59.848111" lon="17.7536773">
        <ele>8.78918</ele>
        <time>2012-05-03T15:54:28Z</time>
      </trkpt>
      <trkpt lat="59.8482578" lon="17.7549424">
        <ele>7.34717</ele>
        <time>2012-05-03T15:54:37Z</time>
      </trkpt>
      <trkpt lat="59.8483572" lon="17.7561482">
        <ele>6.86646</ele>
        <time>2012-05-03T15:54:46Z</time>
      </trkpt>
      <trkpt lat="59.8484039" lon="17.7573319">
        <ele>7.82788</ele>
        <time>2012-05-03T15:54:55Z</time>
      </trkpt>
      <trkpt lat="59.848394" lon="17.7584967">
        <ele>9.2699</ele>
        <time>2012-05-03T15:55:04Z</time>
      </trkpt>
      <trkpt lat="59.848363" lon="17.7600272">
        <ele>8.78918</ele>
        <time>2012-05-03T15:55:16Z</time>
      </trkpt>
      <trkpt lat="59.8483281" lon="17.7616333">
        <ele>8.30859</ele>
        <time>2012-05-03T15:55:29Z</time>
      </trkpt>
      <trkpt lat="59.8483013" lon="17.7626429">
        <ele>8.30859</ele>
        <time>2012-05-03T15:55:37Z</time>
      </trkpt>
      <trkpt lat="59.8481981" lon="17.7631113">
        <ele>8.30859</ele>
        <time>2012-05-03T15:55:41Z</time>
      </trkpt>
      <trkpt lat="59.8481501" lon="17.7632076">
        <ele>8.30859</ele>
        <time>2012-05-03T15:55:42Z</time>
      </trkpt>
      <trkpt lat="59.8475728" lon="17.7643918">
        <ele>7.82788</ele>
        <time>2012-05-03T15:55:54Z</time>
      </trkpt>
      <trkpt lat="59.8472425" lon="17.7650823">
        <ele>7.82788</ele>
        <time>2012-05-03T15:56:01Z</time>
      </trkpt>
      <trkpt lat="59.8471516" lon="17.7655542">
        <ele>7.82788</ele>
        <time>2012-05-03T15:56:05Z</time>
      </trkpt>
      <trkpt lat="59.847165" lon="17.7656807">
        <ele>7.34717</ele>
        <time>2012-05-03T15:56:06Z</time>
      </trkpt>
      <trkpt lat="59.8473319" lon="17.7667234">
        <ele>4.94385</ele>
        <time>2012-05-03T15:56:15Z</time>
      </trkpt>
      <trkpt lat="59.8475599" lon="17.7681081">
        <ele>3.98267</ele>
        <time>2012-05-03T15:56:27Z</time>
      </trkpt>
      <trkpt lat="59.8477392" lon="17.7692793">
        <ele>3.50195</ele>
        <time>2012-05-03T15:56:37Z</time>
      </trkpt>
      <trkpt lat="59.8478945" lon="17.7699434">
        <ele>3.50195</ele>
        <time>2012-05-03T15:56:43Z</time>
      </trkpt>
      <trkpt lat="59.8479628" lon="17.770156">
        <ele>3.98267</ele>
        <time>2012-05-03T15:56:45Z</time>
      </trkpt>
      <trkpt lat="59.848047" lon="17.7708927">
        <ele>5.90527</ele>
        <time>2012-05-03T15:56:51Z</time>
      </trkpt>
      <trkpt lat="59.8482329" lon="17.7718501">
        <ele>15.999</ele>
        <time>2012-05-03T15:56:59Z</time>
      </trkpt>
      <trkpt lat="59.8484003" lon="17.7727068">
        <ele>25.1317</ele>
        <time>2012-05-03T15:57:07Z</time>
      </trkpt>
      <trkpt lat="59.8484637" lon="17.773242">
        <ele>27.5349</ele>
        <time>2012-05-03T15:57:13Z</time>
      </trkpt>
      <trkpt lat="59.848523" lon="17.7739754">
        <ele>29.9381</ele>
        <time>2012-05-03T15:57:22Z</time>
      </trkpt>
      <trkpt lat="59.8485714" lon="17.7744427">
        <ele>28.4962</ele>
        <time>2012-05-03T15:57:29Z</time>
      </trkpt>
      <trkpt lat="59.8485824" lon="17.7748963">
        <ele>26.5736</ele>
        <time>2012-05-03T15:57:36Z</time>
      </trkpt>
      <trkpt lat="59.8486483" lon="17.7754837">
        <ele>28.9769</ele>
        <time>2012-05-03T15:57:44Z</time>
      </trkpt>
      <trkpt lat="59.848713" lon="17.7760776">
        <ele>30.4188</ele>
        <time>2012-05-03T15:57:52Z</time>
      </trkpt>
      <trkpt lat="59.8487642" lon="17.7765883">
        <ele>33.7834</ele>
        <time>2012-05-03T15:57:59Z</time>
      </trkpt>
      <trkpt lat="59.8487962" lon="17.7770124">
        <ele>39.0707</ele>
        <time>2012-05-03T15:58:05Z</time>
      </trkpt>
      <trkpt lat="59.8488228" lon="17.7775397">
        <ele>38.1094</ele>
        <time>2012-05-03T15:58:12Z</time>
      </trkpt>
      <trkpt lat="59.8488233" lon="17.7780947">
        <ele>38.1094</ele>
        <time>2012-05-03T15:58:19Z</time>
      </trkpt>
      <trkpt lat="59.8488266" lon="17.7782618">
        <ele>39.0707</ele>
        <time>2012-05-03T15:58:21Z</time>
      </trkpt>
      <trkpt lat="59.8488726" lon="17.7789871">
        <ele>37.6287</ele>
        <time>2012-05-03T15:58:29Z</time>
      </trkpt>
      <trkpt lat="59.8489389" lon="17.7796042">
        <ele>42.916</ele>
        <time>2012-05-03T15:58:35Z</time>
      </trkpt>
      <trkpt lat="59.8490093" lon="17.7799755">
        <ele>42.916</ele>
        <time>2012-05-03T15:58:39Z</time>
      </trkpt>
      <trkpt lat="59.8491298" lon="17.7807857">
        <ele>41.474</ele>
        <time>2012-05-03T15:58:46Z</time>
      </trkpt>
      <trkpt lat="59.8493174" lon="17.7817378">
        <ele>37.6287</ele>
        <time>2012-05-03T15:58:54Z</time>
      </trkpt>
      <trkpt lat="59.8494974" lon="17.7826629">
        <ele>34.7449</ele>
        <time>2012-05-03T15:59:02Z</time>
      </trkpt>
      <trkpt lat="59.8497434" lon="17.7838027">
        <ele>32.8223</ele>
        <time>2012-05-03T15:59:13Z</time>
      </trkpt>
      <trkpt lat="59.8498272" lon="17.7842847">
        <ele>35.7061</ele>
        <time>2012-05-03T15:59:18Z</time>
      </trkpt>
      <trkpt lat="59.8499854" lon="17.7849295">
        <ele>35.7061</ele>
        <time>2012-05-03T15:59:26Z</time>
      </trkpt>
      <trkpt lat="59.8501744" lon="17.7855245">
        <ele>36.1868</ele>
        <time>2012-05-03T15:59:34Z</time>
      </trkpt>
      <trkpt lat="59.8503717" lon="17.7860278">
        <ele>35.7061</ele>
        <time>2012-05-03T15:59:42Z</time>
      </trkpt>
      <trkpt lat="59.8505939" lon="17.7866301">
        <ele>35.7061</ele>
        <time>2012-05-03T15:59:51Z</time>
      </trkpt>
      <trkpt lat="59.8507633" lon="17.7870854">
        <ele>36.6675</ele>
        <time>2012-05-03T15:59:58Z</time>
      </trkpt>
      <trkpt lat="59.8509751" lon="17.7876107">
        <ele>36.1868</ele>
        <time>2012-05-03T16:00:06Z</time>
      </trkpt>
      <trkpt lat="59.8512469" lon="17.7883249">
        <ele>36.1868</ele>
        <time>2012-05-03T16:00:16Z</time>
      </trkpt>
      <trkpt lat="59.8514735" lon="17.788832">
        <ele>37.1481</ele>
        <time>2012-05-03T16:00:23Z</time>
      </trkpt>
      <trkpt lat="59.85165" lon="17.7893019">
        <ele>32.8223</ele>
        <time>2012-05-03T16:00:29Z</time>
      </trkpt>
      <trkpt lat="59.8519008" lon="17.7899212">
        <ele>32.8223</ele>
        <time>2012-05-03T16:00:36Z</time>
      </trkpt>
      <trkpt lat="59.852256" lon="17.7907684">
        <ele>36.6675</ele>
        <time>2012-05-03T16:00:45Z</time>
      </trkpt>
      <trkpt lat="59.8525681" lon="17.7915498">
        <ele>37.1481</ele>
        <time>2012-05-03T16:00:53Z</time>
      </trkpt>
      <trkpt lat="59.8528421" lon="17.7922518">
        <ele>38.5901</ele>
        <time>2012-05-03T16:01:00Z</time>
      </trkpt>
      <trkpt lat="59.8530939" lon="17.7929316">
        <ele>38.5901</ele>
        <time>2012-05-03T16:01:07Z</time>
      </trkpt>
      <trkpt lat="59.8533692" lon="17.7937282">
        <ele>36.6675</ele>
        <time>2012-05-03T16:01:15Z</time>
      </trkpt>
      <trkpt lat="59.8536125" lon="17.7944409">
        <ele>38.5901</ele>
        <time>2012-05-03T16:01:22Z</time>
      </trkpt>
      <trkpt lat="59.8538315" lon="17.7951419">
        <ele>36.6675</ele>
        <time>2012-05-03T16:01:29Z</time>
      </trkpt>
      <trkpt lat="59.8540449" lon="17.7958726">
        <ele>34.2642</ele>
        <time>2012-05-03T16:01:36Z</time>
      </trkpt>
      <trkpt lat="59.854289" lon="17.7967659">
        <ele>34.7449</ele>
        <time>2012-05-03T16:01:44Z</time>
      </trkpt>
      <trkpt lat="59.8544073" lon="17.7970991">
        <ele>37.1481</ele>
        <time>2012-05-03T16:01:47Z</time>
      </trkpt>
      <trkpt lat="59.8546278" lon="17.7979595">
        <ele>40.5128</ele>
        <time>2012-05-03T16:01:54Z</time>
      </trkpt>
      <trkpt lat="59.854831" lon="17.7987633">
        <ele>40.5128</ele>
        <time>2012-05-03T16:02:01Z</time>
      </trkpt>
      <trkpt lat="59.8550249" lon="17.7994698">
        <ele>38.1094</ele>
        <time>2012-05-03T16:02:08Z</time>
      </trkpt>
      <trkpt lat="59.8552581" lon="17.8002976">
        <ele>37.1481</ele>
        <time>2012-05-03T16:02:16Z</time>
      </trkpt>
      <trkpt lat="59.8555145" lon="17.8011953">
        <ele>34.2642</ele>
        <time>2012-05-03T16:02:25Z</time>
      </trkpt>
      <trkpt lat="59.8556923" lon="17.8018401">
        <ele>29.4575</ele>
        <time>2012-05-03T16:02:31Z</time>
      </trkpt>
      <trkpt lat="59.8558874" lon="17.8026002">
        <ele>30.8995</ele>
        <time>2012-05-03T16:02:37Z</time>
      </trkpt>
      <trkpt lat="59.8559543" lon="17.8028825">
        <ele>34.7449</ele>
        <time>2012-05-03T16:02:39Z</time>
      </trkpt>
      <trkpt lat="59.8561694" lon="17.8034701">
        <ele>29.9381</ele>
        <time>2012-05-03T16:02:44Z</time>
      </trkpt>
      <trkpt lat="59.8564464" lon="17.8043828">
        <ele>27.5349</ele>
        <time>2012-05-03T16:02:51Z</time>
      </trkpt>
      <trkpt lat="59.8565786" lon="17.8047982">
        <ele>25.6123</ele>
        <time>2012-05-03T16:02:54Z</time>
      </trkpt>
      <trkpt lat="59.8568099" lon="17.8052434">
        <ele>23.209</ele>
        <time>2012-05-03T16:02:58Z</time>
      </trkpt>
      <trkpt lat="59.8568804" lon="17.8055775">
        <ele>22.7283</ele>
        <time>2012-05-03T16:03:01Z</time>
      </trkpt>
      <trkpt lat="59.8568458" lon="17.8056583">
        <ele>24.1703</ele>
        <time>2012-05-03T16:03:02Z</time>
      </trkpt>
      <trkpt lat="59.85665" lon="17.8060795">
        <ele>20.325</ele>
        <time>2012-05-03T16:03:07Z</time>
      </trkpt>
      <trkpt lat="59.8566508" lon="17.8065077">
        <ele>25.6123</ele>
        <time>2012-05-03T16:03:11Z</time>
      </trkpt>
      <trkpt lat="59.8566661" lon="17.8066519">
        <ele>26.0929</ele>
        <time>2012-05-03T16:03:13Z</time>
      </trkpt>
      <trkpt lat="59.8566867" lon="17.8070713">
        <ele>29.4575</ele>
        <time>2012-05-03T16:03:18Z</time>
      </trkpt>
      <trkpt lat="59.8565345" lon="17.8076782">
        <ele>19.8444</ele>
        <time>2012-05-03T16:03:26Z</time>
      </trkpt>
      <trkpt lat="59.8565091" lon="17.8077409">
        <ele>18.8831</ele>
        <time>2012-05-03T16:03:27Z</time>
      </trkpt>
      <trkpt lat="59.8564293" lon="17.8080155">
        <ele>15.999</ele>
        <time>2012-05-03T16:03:31Z</time>
      </trkpt>
      <trkpt lat="59.8563531" lon="17.8082569">
        <ele>12.1538</ele>
        <time>2012-05-03T16:03:35Z</time>
      </trkpt>
      <trkpt lat="59.8562945" lon="17.8086941">
        <ele>12.1538</ele>
        <time>2012-05-03T16:03:41Z</time>
      </trkpt>
      <trkpt lat="59.8563415" lon="17.8089078">
        <ele>18.4023</ele>
        <time>2012-05-03T16:03:43Z</time>
      </trkpt>
      <trkpt lat="59.856549" lon="17.8093645">
        <ele>23.6896</ele>
        <time>2012-05-03T16:03:48Z</time>
      </trkpt>
      <trkpt lat="59.8568126" lon="17.8099051">
        <ele>26.0929</ele>
        <time>2012-05-03T16:03:54Z</time>
      </trkpt>
      <trkpt lat="59.8569213" lon="17.8104454">
        <ele>28.0155</ele>
        <time>2012-05-03T16:03:59Z</time>
      </trkpt>
      <trkpt lat="59.8569163" lon="17.8108304">
        <ele>30.4188</ele>
        <time>2012-05-03T16:04:03Z</time>
      </trkpt>
      <trkpt lat="59.856912" lon="17.8113186">
        <ele>31.3801</ele>
        <time>2012-05-03T16:04:08Z</time>
      </trkpt>
      <trkpt lat="59.8569239" lon="17.811559">
        <ele>30.4188</ele>
        <time>2012-05-03T16:04:10Z</time>
      </trkpt>
      <trkpt lat="59.8570892" lon="17.8124067">
        <ele>31.3801</ele>
        <time>2012-05-03T16:04:17Z</time>
      </trkpt>
      <trkpt lat="59.8571525" lon="17.8127163">
        <ele>30.8995</ele>
        <time>2012-05-03T16:04:20Z</time>
      </trkpt>
      <trkpt lat="59.8573502" lon="17.813251">
        <ele>25.6123</ele>
        <time>2012-05-03T16:04:26Z</time>
      </trkpt>
      <trkpt lat="59.8574389" lon="17.813471">
        <ele>25.1317</ele>
        <time>2012-05-03T16:04:28Z</time>
      </trkpt>
      <trkpt lat="59.8575109" lon="17.8139693">
        <ele>25.1317</ele>
        <time>2012-05-03T16:04:32Z</time>
      </trkpt>
      <trkpt lat="59.8574959" lon="17.8140911">
        <ele>24.651</ele>
        <time>2012-05-03T16:04:33Z</time>
      </trkpt>
      <trkpt lat="59.8574678" lon="17.8143177">
        <ele>22.7283</ele>
        <time>2012-05-03T16:04:35Z</time>
      </trkpt>
      <trkpt lat="59.8575343" lon="17.814674">
        <ele>22.2476</ele>
        <time>2012-05-03T16:04:39Z</time>
      </trkpt>
      <trkpt lat="59.8575777" lon="17.8147609">
        <ele>21.2864</ele>
        <time>2012-05-03T16:04:42Z</time>
      </trkpt>
      <trkpt lat="59.857585" lon="17.8146518">
        <ele>21.767</ele>
        <time>2012-05-03T16:04:46Z</time>
      </trkpt>
      <trkpt lat="59.8575415" lon="17.8146629">
        <ele>21.767</ele>
        <time>2012-05-03T16:04:49Z</time>
      </trkpt>
      <trkpt lat="59.8575644" lon="17.8147154">
        <ele>20.8057</ele>
        <time>2012-05-03T16:04:52Z</time>
      </trkpt>
      <trkpt lat="59.857607" lon="17.8147838">
        <ele>20.325</ele>
        <time>2012-05-03T16:04:57Z</time>
      </trkpt>
      <trkpt lat="59.8576241" lon="17.8148062">
        <ele>19.8444</ele>
        <time>2012-05-03T16:04:58Z</time>
      </trkpt>
      <trkpt lat="59.8578108" lon="17.8149387">
        <ele>19.3638</ele>
        <time>2012-05-03T16:05:03Z</time>
      </trkpt>
      <trkpt lat="59.8581984" lon="17.815178">
        <ele>20.325</ele>
        <time>2012-05-03T16:05:11Z</time>
      </trkpt>
      <trkpt lat="59.8584745" lon="17.8153676">
        <ele>20.325</ele>
        <time>2012-05-03T16:05:17Z</time>
      </trkpt>
      <trkpt lat="59.8589002" lon="17.8157215">
        <ele>19.8444</ele>
        <time>2012-05-03T16:05:24Z</time>
      </trkpt>
      <trkpt lat="59.8594615" lon="17.8162145">
        <ele>15.999</ele>
        <time>2012-05-03T16:05:33Z</time>
      </trkpt>
      <trkpt lat="59.8600783" lon="17.8167806">
        <ele>16.9604</ele>
        <time>2012-05-03T16:05:43Z</time>
      </trkpt>
      <trkpt lat="59.8605786" lon="17.8174298">
        <ele>18.4023</ele>
        <time>2012-05-03T16:05:52Z</time>
      </trkpt>
      <trkpt lat="59.8609143" lon="17.8178779">
        <ele>19.8444</ele>
        <time>2012-05-03T16:05:59Z</time>
      </trkpt>
      <trkpt lat="59.8611715" lon="17.818185">
        <ele>22.2476</ele>
        <time>2012-05-03T16:06:05Z</time>
      </trkpt>
      <trkpt lat="59.8614561" lon="17.8184286">
        <ele>24.1703</ele>
        <time>2012-05-03T16:06:11Z</time>
      </trkpt>
      <trkpt lat="59.8618011" lon="17.8186207">
        <ele>27.5349</ele>
        <time>2012-05-03T16:06:18Z</time>
      </trkpt>
      <trkpt lat="59.8621184" lon="17.8188398">
        <ele>27.0543</ele>
        <time>2012-05-03T16:06:23Z</time>
      </trkpt>
      <trkpt lat="59.8623056" lon="17.8190437">
        <ele>25.6123</ele>
        <time>2012-05-03T16:06:26Z</time>
      </trkpt>
      <trkpt lat="59.8624464" lon="17.8195025">
        <ele>22.2476</ele>
        <time>2012-05-03T16:06:30Z</time>
      </trkpt>
      <trkpt lat="59.8626865" lon="17.820619">
        <ele>20.325</ele>
        <time>2012-05-03T16:06:38Z</time>
      </trkpt>
      <trkpt lat="59.8629234" lon="17.8214594">
        <ele>16.9604</ele>
        <time>2012-05-03T16:06:43Z</time>
      </trkpt>
      <trkpt lat="59.8633628" lon="17.8227907">
        <ele>13.1151</ele>
        <time>2012-05-03T16:06:51Z</time>
      </trkpt>
      <trkpt lat="59.863971" lon="17.824219">
        <ele>9.75061</ele>
        <time>2012-05-03T16:07:01Z</time>
      </trkpt>
      <trkpt lat="59.864434" lon="17.8252051">
        <ele>8.78918</ele>
        <time>2012-05-03T16:07:09Z</time>
      </trkpt>
      <trkpt lat="59.864648" lon="17.8256925">
        <ele>9.2699</ele>
        <time>2012-05-03T16:07:14Z</time>
      </trkpt>
      <trkpt lat="59.8649837" lon="17.8263966">
        <ele>12.6344</ele>
        <time>2012-05-03T16:07:23Z</time>
      </trkpt>
      <trkpt lat="59.8650302" lon="17.8264572">
        <ele>12.6344</ele>
        <time>2012-05-03T16:07:24Z</time>
      </trkpt>
      <trkpt lat="59.8652434" lon="17.8266008">
        <ele>15.0377</ele>
        <time>2012-05-03T16:07:28Z</time>
      </trkpt>
      <trkpt lat="59.8657509" lon="17.826711">
        <ele>14.557</ele>
        <time>2012-05-03T16:07:36Z</time>
      </trkpt>
      <trkpt lat="59.8661641" lon="17.8267807">
        <ele>16.9604</ele>
        <time>2012-05-03T16:07:43Z</time>
      </trkpt>
      <trkpt lat="59.866552" lon="17.8267458">
        <ele>18.8831</ele>
        <time>2012-05-03T16:07:50Z</time>
      </trkpt>
      <trkpt lat="59.8669122" lon="17.8265782">
        <ele>21.767</ele>
        <time>2012-05-03T16:07:56Z</time>
      </trkpt>
      <trkpt lat="59.8672654" lon="17.8263358">
        <ele>23.6896</ele>
        <time>2012-05-03T16:08:03Z</time>
      </trkpt>
      <trkpt lat="59.8676489" lon="17.826081">
        <ele>26.5736</ele>
        <time>2012-05-03T16:08:12Z</time>
      </trkpt>
      <trkpt lat="59.8679189" lon="17.8258826">
        <ele>27.5349</ele>
        <time>2012-05-03T16:08:19Z</time>
      </trkpt>
      <trkpt lat="59.8681347" lon="17.8257149">
        <ele>28.4962</ele>
        <time>2012-05-03T16:08:25Z</time>
      </trkpt>
      <trkpt lat="59.868414" lon="17.8256987">
        <ele>28.9769</ele>
        <time>2012-05-03T16:08:31Z</time>
      </trkpt>
      <trkpt lat="59.8685554" lon="17.8258025">
        <ele>28.9769</ele>
        <time>2012-05-03T16:08:34Z</time>
      </trkpt>
      <trkpt lat="59.8688594" lon="17.8262663">
        <ele>26.5736</ele>
        <time>2012-05-03T16:08:41Z</time>
      </trkpt>
      <trkpt lat="59.8692481" lon="17.8269533">
        <ele>21.767</ele>
        <time>2012-05-03T16:08:49Z</time>
      </trkpt>
      <trkpt lat="59.8696083" lon="17.8275626">
        <ele>18.8831</ele>
        <time>2012-05-03T16:08:56Z</time>
      </trkpt>
      <trkpt lat="59.8699644" lon="17.828092">
        <ele>16.9604</ele>
        <time>2012-05-03T16:09:02Z</time>
      </trkpt>
      <trkpt lat="59.8705421" lon="17.8286788">
        <ele>13.5958</ele>
        <time>2012-05-03T16:09:10Z</time>
      </trkpt>
      <trkpt lat="59.87123" lon="17.8293326">
        <ele>12.6344</ele>
        <time>2012-05-03T16:09:20Z</time>
      </trkpt>
      <trkpt lat="59.8717966" lon="17.829867">
        <ele>12.1538</ele>
        <time>2012-05-03T16:09:29Z</time>
      </trkpt>
      <trkpt lat="59.8721659" lon="17.8302283">
        <ele>12.1538</ele>
        <time>2012-05-03T16:09:36Z</time>
      </trkpt>
      <trkpt lat="59.8725261" lon="17.8305385">
        <ele>13.5958</ele>
        <time>2012-05-03T16:09:44Z</time>
      </trkpt>
      <trkpt lat="59.8727973" lon="17.8306784">
        <ele>16.4797</ele>
        <time>2012-05-03T16:09:51Z</time>
      </trkpt>
      <trkpt lat="59.8731259" lon="17.8308375">
        <ele>19.3638</ele>
        <time>2012-05-03T16:10:00Z</time>
      </trkpt>
      <trkpt lat="59.8734466" lon="17.8311021">
        <ele>20.325</ele>
        <time>2012-05-03T16:10:09Z</time>
      </trkpt>
      <trkpt lat="59.8737448" lon="17.8314369">
        <ele>20.8057</ele>
        <time>2012-05-03T16:10:18Z</time>
      </trkpt>
      <trkpt lat="59.8739979" lon="17.8317657">
        <ele>21.767</ele>
        <time>2012-05-03T16:10:26Z</time>
      </trkpt>
      <trkpt lat="59.8743001" lon="17.8321219">
        <ele>23.209</ele>
        <time>2012-05-03T16:10:34Z</time>
      </trkpt>
      <trkpt lat="59.8745451" lon="17.8322968">
        <ele>23.6896</ele>
        <time>2012-05-03T16:10:39Z</time>
      </trkpt>
      <trkpt lat="59.8749274" lon="17.8324068">
        <ele>23.209</ele>
        <time>2012-05-03T16:10:45Z</time>
      </trkpt>
      <trkpt lat="59.8754204" lon="17.8325686">
        <ele>23.6896</ele>
        <time>2012-05-03T16:10:53Z</time>
      </trkpt>
      <trkpt lat="59.8757391" lon="17.8328401">
        <ele>23.6896</ele>
        <time>2012-05-03T16:10:59Z</time>
      </trkpt>
      <trkpt lat="59.8761278" lon="17.8332177">
        <ele>23.6896</ele>
        <time>2012-05-03T16:11:06Z</time>
      </trkpt>
      <trkpt lat="59.8764985" lon="17.8334773">
        <ele>23.209</ele>
        <time>2012-05-03T16:11:13Z</time>
      </trkpt>
      <trkpt lat="59.8767491" lon="17.8336295">
        <ele>24.651</ele>
        <time>2012-05-03T16:11:18Z</time>
      </trkpt>
      <trkpt lat="59.8771492" lon="17.8339417">
        <ele>26.5736</ele>
        <time>2012-05-03T16:11:24Z</time>
      </trkpt>
      <trkpt lat="59.8775082" lon="17.8343865">
        <ele>25.6123</ele>
        <time>2012-05-03T16:11:30Z</time>
      </trkpt>
      <trkpt lat="59.8778952" lon="17.8348872">
        <ele>22.7283</ele>
        <time>2012-05-03T16:11:37Z</time>
      </trkpt>
      <trkpt lat="59.8780707" lon="17.835083">
        <ele>20.8057</ele>
        <time>2012-05-03T16:11:40Z</time>
      </trkpt>
      <trkpt lat="59.8785634" lon="17.8355477">
        <ele>16.9604</ele>
        <time>2012-05-03T16:11:48Z</time>
      </trkpt>
      <trkpt lat="59.8789482" lon="17.8357483">
        <ele>19.3638</ele>
        <time>2012-05-03T16:11:54Z</time>
      </trkpt>
      <trkpt lat="59.879301" lon="17.8358364">
        <ele>20.325</ele>
        <time>2012-05-03T16:12:00Z</time>
      </trkpt>
      <trkpt lat="59.8796401" lon="17.8358585">
        <ele>22.7283</ele>
        <time>2012-05-03T16:12:05Z</time>
      </trkpt>
      <trkpt lat="59.8799574" lon="17.8359246">
        <ele>27.0543</ele>
        <time>2012-05-03T16:12:11Z</time>
      </trkpt>
      <trkpt lat="59.8802568" lon="17.8361792">
        <ele>28.0155</ele>
        <time>2012-05-03T16:12:16Z</time>
      </trkpt>
      <trkpt lat="59.8806721" lon="17.8367191">
        <ele>26.0929</ele>
        <time>2012-05-03T16:12:23Z</time>
      </trkpt>
      <trkpt lat="59.8809361" lon="17.8372115">
        <ele>24.651</ele>
        <time>2012-05-03T16:12:29Z</time>
      </trkpt>
      <trkpt lat="59.8812596" lon="17.8376986">
        <ele>24.1703</ele>
        <time>2012-05-03T16:12:35Z</time>
      </trkpt>
      <trkpt lat="59.8817225" lon="17.8383207">
        <ele>26.0929</ele>
        <time>2012-05-03T16:12:43Z</time>
      </trkpt>
      <trkpt lat="59.8820149" lon="17.8387408">
        <ele>25.1317</ele>
        <time>2012-05-03T16:12:49Z</time>
      </trkpt>
      <trkpt lat="59.8822143" lon="17.8389245">
        <ele>25.6123</ele>
        <time>2012-05-03T16:12:53Z</time>
      </trkpt>
      <trkpt lat="59.8826141" lon="17.8390717">
        <ele>29.4575</ele>
        <time>2012-05-03T16:13:02Z</time>
      </trkpt>
      <trkpt lat="59.8828688" lon="17.839243">
        <ele>28.9769</ele>
        <time>2012-05-03T16:13:09Z</time>
      </trkpt>
      <trkpt lat="59.8830944" lon="17.8395375">
        <ele>28.9769</ele>
        <time>2012-05-03T16:13:14Z</time>
      </trkpt>
      <trkpt lat="59.8834739" lon="17.8400218">
        <ele>28.0155</ele>
        <time>2012-05-03T16:13:20Z</time>
      </trkpt>
      <trkpt lat="59.8840007" lon="17.8407242">
        <ele>24.651</ele>
        <time>2012-05-03T16:13:28Z</time>
      </trkpt>
      <trkpt lat="59.8845348" lon="17.8413071">
        <ele>23.209</ele>
        <time>2012-05-03T16:13:36Z</time>
      </trkpt>
      <trkpt lat="59.8849526" lon="17.8415116">
        <ele>21.2864</ele>
        <time>2012-05-03T16:13:42Z</time>
      </trkpt>
      <trkpt lat="59.8853511" lon="17.841506">
        <ele>23.209</ele>
        <time>2012-05-03T16:13:48Z</time>
      </trkpt>
      <trkpt lat="59.8858288" lon="17.8414484">
        <ele>26.0929</ele>
        <time>2012-05-03T16:13:56Z</time>
      </trkpt>
      <trkpt lat="59.8862272" lon="17.8413722">
        <ele>27.0543</ele>
        <time>2012-05-03T16:14:03Z</time>
      </trkpt>
      <trkpt lat="59.8866396" lon="17.8411933">
        <ele>24.651</ele>
        <time>2012-05-03T16:14:11Z</time>
      </trkpt>
      <trkpt lat="59.8869054" lon="17.8411402">
        <ele>24.651</ele>
        <time>2012-05-03T16:14:16Z</time>
      </trkpt>
      <trkpt lat="59.887156" lon="17.8413002">
        <ele>25.6123</ele>
        <time>2012-05-03T16:14:21Z</time>
      </trkpt>
      <trkpt lat="59.8873089" lon="17.841581">
        <ele>27.0543</ele>
        <time>2012-05-03T16:14:25Z</time>
      </trkpt>
      <trkpt lat="59.8875695" lon="17.8422029">
        <ele>25.6123</ele>
        <time>2012-05-03T16:14:33Z</time>
      </trkpt>
      <trkpt lat="59.8879358" lon="17.842689">
        <ele>25.1317</ele>
        <time>2012-05-03T16:14:40Z</time>
      </trkpt>
      <trkpt lat="59.888315" lon="17.8430126">
        <ele>24.651</ele>
        <time>2012-05-03T16:14:47Z</time>
      </trkpt>
      <trkpt lat="59.8886833" lon="17.8431661">
        <ele>25.1317</ele>
        <time>2012-05-03T16:14:54Z</time>
      </trkpt>
      <trkpt lat="59.8889479" lon="17.8432182">
        <ele>25.6123</ele>
        <time>2012-05-03T16:14:59Z</time>
      </trkpt>
      <trkpt lat="59.8892888" lon="17.8434203">
        <ele>28.4962</ele>
        <time>2012-05-03T16:15:06Z</time>
      </trkpt>
      <trkpt lat="59.8895869" lon="17.8433457">
        <ele>28.9769</ele>
        <time>2012-05-03T16:15:12Z</time>
      </trkpt>
      <trkpt lat="59.8896955" lon="17.8431578">
        <ele>28.9769</ele>
        <time>2012-05-03T16:15:15Z</time>
      </trkpt>
      <trkpt lat="59.8897496" lon="17.8430023">
        <ele>28.9769</ele>
        <time>2012-05-03T16:15:17Z</time>
      </trkpt>
      <trkpt lat="59.8897928" lon="17.842527">
        <ele>29.9381</ele>
        <time>2012-05-03T16:15:22Z</time>
      </trkpt>
      <trkpt lat="59.8898295" lon="17.8417429">
        <ele>31.3801</ele>
        <time>2012-05-03T16:15:31Z</time>
      </trkpt>
      <trkpt lat="59.889871" lon="17.841396">
        <ele>30.4188</ele>
        <time>2012-05-03T16:15:35Z</time>
      </trkpt>
      <trkpt lat="59.8899083" lon="17.8412254">
        <ele>29.9381</ele>
        <time>2012-05-03T16:15:37Z</time>
      </trkpt>
      <trkpt lat="59.890091" lon="17.840891">
        <ele>29.9381</ele>
        <time>2012-05-03T16:15:42Z</time>
      </trkpt>
      <trkpt lat="59.8902574" lon="17.8409282">
        <ele>29.9381</ele>
        <time>2012-05-03T16:15:45Z</time>
      </trkpt>
      <trkpt lat="59.8904113" lon="17.8410987">
        <ele>30.4188</ele>
        <time>2012-05-03T16:15:48Z</time>
      </trkpt>
      <trkpt lat="59.8908179" lon="17.841701">
        <ele>36.6675</ele>
        <time>2012-05-03T16:15:57Z</time>
      </trkpt>
      <trkpt lat="59.8911162" lon="17.8420115">
        <ele>37.1481</ele>
        <time>2012-05-03T16:16:03Z</time>
      </trkpt>
      <trkpt lat="59.8914854" lon="17.8422472">
        <ele>36.1868</ele>
        <time>2012-05-03T16:16:10Z</time>
      </trkpt>
      <trkpt lat="59.8918542" lon="17.8423248">
        <ele>35.2255</ele>
        <time>2012-05-03T16:16:16Z</time>
      </trkpt>
      <trkpt lat="59.8922305" lon="17.8424698">
        <ele>33.7834</ele>
        <time>2012-05-03T16:16:22Z</time>
      </trkpt>
      <trkpt lat="59.8925688" lon="17.8426143">
        <ele>32.3416</ele>
        <time>2012-05-03T16:16:27Z</time>
      </trkpt>
      <trkpt lat="59.8930454" lon="17.8428398">
        <ele>30.4188</ele>
        <time>2012-05-03T16:16:34Z</time>
      </trkpt>
      <trkpt lat="59.8936462" lon="17.8430615">
        <ele>27.5349</ele>
        <time>2012-05-03T16:16:42Z</time>
      </trkpt>
      <trkpt lat="59.8941415" lon="17.8430882">
        <ele>28.9769</ele>
        <time>2012-05-03T16:16:49Z</time>
      </trkpt>
      <trkpt lat="59.8947273" lon="17.8431599">
        <ele>30.4188</ele>
        <time>2012-05-03T16:16:58Z</time>
      </trkpt>
      <trkpt lat="59.8950997" lon="17.8431556">
        <ele>32.8223</ele>
        <time>2012-05-03T16:17:04Z</time>
      </trkpt>
      <trkpt lat="59.8954843" lon="17.8429874">
        <ele>35.2255</ele>
        <time>2012-05-03T16:17:11Z</time>
      </trkpt>
      <trkpt lat="59.8958887" lon="17.8427905">
        <ele>37.1481</ele>
        <time>2012-05-03T16:17:19Z</time>
      </trkpt>
      <trkpt lat="59.8962322" lon="17.8428164">
        <ele>34.2642</ele>
        <time>2012-05-03T16:17:25Z</time>
      </trkpt>
      <trkpt lat="59.896549" lon="17.8429315">
        <ele>35.2255</ele>
        <time>2012-05-03T16:17:31Z</time>
      </trkpt>
      <trkpt lat="59.8966692" lon="17.8429398">
        <ele>35.7061</ele>
        <time>2012-05-03T16:17:34Z</time>
      </trkpt>
      <trkpt lat="59.8968199" lon="17.8429027">
        <ele>35.2255</ele>
        <time>2012-05-03T16:17:38Z</time>
      </trkpt>
      <trkpt lat="59.8970976" lon="17.8427311">
        <ele>36.6675</ele>
        <time>2012-05-03T16:17:45Z</time>
      </trkpt>
      <trkpt lat="59.8972723" lon="17.8425926">
        <ele>39.5513</ele>
        <time>2012-05-03T16:17:50Z</time>
      </trkpt>
      <trkpt lat="59.8973508" lon="17.8425158">
        <ele>41.474</ele>
        <time>2012-05-03T16:17:52Z</time>
      </trkpt>
      <trkpt lat="59.8976622" lon="17.842345">
        <ele>42.4354</ele>
        <time>2012-05-03T16:17:59Z</time>
      </trkpt>
      <trkpt lat="59.8978515" lon="17.8422988">
        <ele>42.916</ele>
        <time>2012-05-03T16:18:03Z</time>
      </trkpt>
      <trkpt lat="59.8982128" lon="17.8423093">
        <ele>43.3966</ele>
        <time>2012-05-03T16:18:10Z</time>
      </trkpt>
      <trkpt lat="59.8984788" lon="17.8422477">
        <ele>45.3192</ele>
        <time>2012-05-03T16:18:15Z</time>
      </trkpt>
      <trkpt lat="59.8987827" lon="17.8421235">
        <ele>46.7612</ele>
        <time>2012-05-03T16:18:21Z</time>
      </trkpt>
      <trkpt lat="59.8990636" lon="17.8419486">
        <ele>42.4354</ele>
        <time>2012-05-03T16:18:28Z</time>
      </trkpt>
      <trkpt lat="59.899295" lon="17.8417443">
        <ele>43.3966</ele>
        <time>2012-05-03T16:18:33Z</time>
      </trkpt>
      <trkpt lat="59.899462" lon="17.8416217">
        <ele>44.358</ele>
        <time>2012-05-03T16:18:36Z</time>
      </trkpt>
      <trkpt lat="59.899877" lon="17.8414976">
        <ele>38.1094</ele>
        <time>2012-05-03T16:18:42Z</time>
      </trkpt>
      <trkpt lat="59.9004633" lon="17.8414649">
        <ele>30.4188</ele>
        <time>2012-05-03T16:18:49Z</time>
      </trkpt>
      <trkpt lat="59.9012191" lon="17.841537">
        <ele>30.4188</ele>
        <time>2012-05-03T16:18:57Z</time>
      </trkpt>
      <trkpt lat="59.9017365" lon="17.8416034">
        <ele>30.4188</ele>
        <time>2012-05-03T16:19:03Z</time>
      </trkpt>
      <trkpt lat="59.902086" lon="17.841654">
        <ele>30.8995</ele>
        <time>2012-05-03T16:19:08Z</time>
      </trkpt>
      <trkpt lat="59.9024432" lon="17.841568">
        <ele>31.3801</ele>
        <time>2012-05-03T16:19:13Z</time>
      </trkpt>
      <trkpt lat="59.9029578" lon="17.8413418">
        <ele>32.8223</ele>
        <time>2012-05-03T16:19:19Z</time>
      </trkpt>
      <trkpt lat="59.9032889" lon="17.8413649">
        <ele>33.3029</ele>
        <time>2012-05-03T16:19:23Z</time>
      </trkpt>
      <trkpt lat="59.9034972" lon="17.841595">
        <ele>32.3416</ele>
        <time>2012-05-03T16:19:26Z</time>
      </trkpt>
      <trkpt lat="59.9037747" lon="17.8419528">
        <ele>29.9381</ele>
        <time>2012-05-03T16:19:30Z</time>
      </trkpt>
      <trkpt lat="59.9041018" lon="17.8420628">
        <ele>28.9769</ele>
        <time>2012-05-03T16:19:34Z</time>
      </trkpt>
      <trkpt lat="59.9042592" lon="17.8420027">
        <ele>28.0155</ele>
        <time>2012-05-03T16:19:36Z</time>
      </trkpt>
      <trkpt lat="59.9046954" lon="17.8416939">
        <ele>27.0543</ele>
        <time>2012-05-03T16:19:42Z</time>
      </trkpt>
      <trkpt lat="59.905165" lon="17.8414649">
        <ele>23.6896</ele>
        <time>2012-05-03T16:19:48Z</time>
      </trkpt>
      <trkpt lat="59.9057375" lon="17.8412453">
        <ele>21.2864</ele>
        <time>2012-05-03T16:19:54Z</time>
      </trkpt>
      <trkpt lat="59.9058304" lon="17.841182">
        <ele>21.2864</ele>
        <time>2012-05-03T16:19:55Z</time>
      </trkpt>
      <trkpt lat="59.9062101" lon="17.8406937">
        <ele>23.209</ele>
        <time>2012-05-03T16:20:00Z</time>
      </trkpt>
      <trkpt lat="59.9064803" lon="17.8403652">
        <ele>23.209</ele>
        <time>2012-05-03T16:20:04Z</time>
      </trkpt>
      <trkpt lat="59.9067602" lon="17.8401108">
        <ele>21.767</ele>
        <time>2012-05-03T16:20:09Z</time>
      </trkpt>
      <trkpt lat="59.907129" lon="17.8398161">
        <ele>25.1317</ele>
        <time>2012-05-03T16:20:16Z</time>
      </trkpt>
      <trkpt lat="59.907386" lon="17.8396192">
        <ele>25.1317</ele>
        <time>2012-05-03T16:20:23Z</time>
      </trkpt>
      <trkpt lat="59.9076532" lon="17.8393551">
        <ele>23.6896</ele>
        <time>2012-05-03T16:20:32Z</time>
      </trkpt>
      <trkpt lat="59.9078976" lon="17.8390831">
        <ele>24.1703</ele>
        <time>2012-05-03T16:20:37Z</time>
      </trkpt>
      <trkpt lat="59.9080795" lon="17.8389023">
        <ele>24.1703</ele>
        <time>2012-05-03T16:20:40Z</time>
      </trkpt>
      <trkpt lat="59.90843" lon="17.8387615">
        <ele>23.209</ele>
        <time>2012-05-03T16:20:45Z</time>
      </trkpt>
      <trkpt lat="59.9086639" lon="17.8388961">
        <ele>21.2864</ele>
        <time>2012-05-03T16:20:48Z</time>
      </trkpt>
      <trkpt lat="59.9089514" lon="17.8393416">
        <ele>18.8831</ele>
        <time>2012-05-03T16:20:52Z</time>
      </trkpt>
      <trkpt lat="59.9094694" lon="17.8407444">
        <ele>12.6344</ele>
        <time>2012-05-03T16:21:01Z</time>
      </trkpt>
      <trkpt lat="59.9095189" lon="17.840904">
        <ele>12.1538</ele>
        <time>2012-05-03T16:21:02Z</time>
      </trkpt>
      <trkpt lat="59.9096294" lon="17.8417627">
        <ele>11.1925</ele>
        <time>2012-05-03T16:21:07Z</time>
      </trkpt>
      <trkpt lat="59.9096158" lon="17.8420731">
        <ele>11.6732</ele>
        <time>2012-05-03T16:21:09Z</time>
      </trkpt>
      <trkpt lat="59.9095709" lon="17.8426065">
        <ele>13.1151</ele>
        <time>2012-05-03T16:21:13Z</time>
      </trkpt>
      <trkpt lat="59.9096335" lon="17.8430755">
        <ele>14.0764</ele>
        <time>2012-05-03T16:21:17Z</time>
      </trkpt>
      <trkpt lat="59.9097917" lon="17.8432771">
        <ele>13.5958</ele>
        <time>2012-05-03T16:21:20Z</time>
      </trkpt>
      <trkpt lat="59.9101597" lon="17.8436026">
        <ele>13.5958</ele>
        <time>2012-05-03T16:21:26Z</time>
      </trkpt>
      <trkpt lat="59.910612" lon="17.843954">
        <ele>11.6732</ele>
        <time>2012-05-03T16:21:33Z</time>
      </trkpt>
      <trkpt lat="59.9108831" lon="17.8441807">
        <ele>10.2312</ele>
        <time>2012-05-03T16:21:37Z</time>
      </trkpt>
      <trkpt lat="59.9111788" lon="17.8443113">
        <ele>10.2312</ele>
        <time>2012-05-03T16:21:41Z</time>
      </trkpt>
      <trkpt lat="59.9117822" lon="17.8443012">
        <ele>12.1538</ele>
        <time>2012-05-03T16:21:50Z</time>
      </trkpt>
      <trkpt lat="59.9121256" lon="17.8441124">
        <ele>14.557</ele>
        <time>2012-05-03T16:21:56Z</time>
      </trkpt>
      <trkpt lat="59.9124448" lon="17.843785">
        <ele>17.9218</ele>
        <time>2012-05-03T16:22:03Z</time>
      </trkpt>
      <trkpt lat="59.9128425" lon="17.8434529">
        <ele>18.4023</ele>
        <time>2012-05-03T16:22:11Z</time>
      </trkpt>
      <trkpt lat="59.9132277" lon="17.8433168">
        <ele>17.4412</ele>
        <time>2012-05-03T16:22:17Z</time>
      </trkpt>
      <trkpt lat="59.9137522" lon="17.8430614">
        <ele>16.9604</ele>
        <time>2012-05-03T16:22:25Z</time>
      </trkpt>
      <trkpt lat="59.9142821" lon="17.8425384">
        <ele>16.4797</ele>
        <time>2012-05-03T16:22:34Z</time>
      </trkpt>
      <trkpt lat="59.9147364" lon="17.8420295">
        <ele>15.999</ele>
        <time>2012-05-03T16:22:42Z</time>
      </trkpt>
      <trkpt lat="59.9150894" lon="17.8418586">
        <ele>15.999</ele>
        <time>2012-05-03T16:22:48Z</time>
      </trkpt>
      <trkpt lat="59.9154116" lon="17.8418497">
        <ele>14.557</ele>
        <time>2012-05-03T16:22:54Z</time>
      </trkpt>
      <trkpt lat="59.9158709" lon="17.8418948">
        <ele>12.1538</ele>
        <time>2012-05-03T16:23:03Z</time>
      </trkpt>
      <trkpt lat="59.9159192" lon="17.8419035">
        <ele>12.1538</ele>
        <time>2012-05-03T16:23:04Z</time>
      </trkpt>
      <trkpt lat="59.9161443" lon="17.8420577">
        <ele>11.1925</ele>
        <time>2012-05-03T16:23:09Z</time>
      </trkpt>
      <trkpt lat="59.916448" lon="17.8425507">
        <ele>10.2312</ele>
        <time>2012-05-03T16:23:18Z</time>
      </trkpt>
      <trkpt lat="59.9168387" lon="17.8431242">
        <ele>17.4412</ele>
        <time>2012-05-03T16:23:29Z</time>
      </trkpt>
      <trkpt lat="59.9170924" lon="17.8435831">
        <ele>19.3638</ele>
        <time>2012-05-03T16:23:37Z</time>
      </trkpt>
      <trkpt lat="59.917371" lon="17.8441902">
        <ele>21.767</ele>
        <time>2012-05-03T16:23:47Z</time>
      </trkpt>
      <trkpt lat="59.9174923" lon="17.8446482">
        <ele>22.2476</ele>
        <time>2012-05-03T16:23:55Z</time>
      </trkpt>
      <trkpt lat="59.9176586" lon="17.84498">
        <ele>21.2864</ele>
        <time>2012-05-03T16:24:01Z</time>
      </trkpt>
      <trkpt lat="59.9178426" lon="17.8452015">
        <ele>18.8831</ele>
        <time>2012-05-03T16:24:05Z</time>
      </trkpt>
      <trkpt lat="59.9182678" lon="17.8457171">
        <ele>13.1151</ele>
        <time>2012-05-03T16:24:14Z</time>
      </trkpt>
      <trkpt lat="59.9186355" lon="17.8461505">
        <ele>8.78918</ele>
        <time>2012-05-03T16:24:22Z</time>
      </trkpt>
      <trkpt lat="59.9190416" lon="17.8466372">
        <ele>4.46326</ele>
        <time>2012-05-03T16:24:31Z</time>
      </trkpt>
      <trkpt lat="59.9194141" lon="17.8472128">
        <ele>2.06006</ele>
        <time>2012-05-03T16:24:40Z</time>
      </trkpt>
      <trkpt lat="59.9197243" lon="17.8477075">
        <ele>2.06006</ele>
        <time>2012-05-03T16:24:48Z</time>
      </trkpt>
      <trkpt lat="59.9199592" lon="17.8480621">
        <ele>3.02124</ele>
        <time>2012-05-03T16:24:54Z</time>
      </trkpt>
      <trkpt lat="59.9201963" lon="17.8482412">
        <ele>9.2699</ele>
        <time>2012-05-03T16:24:58Z</time>
      </trkpt>
      <trkpt lat="59.920402" lon="17.8485333">
        <ele>13.1151</ele>
        <time>2012-05-03T16:25:02Z</time>
      </trkpt>
      <trkpt lat="59.9208426" lon="17.8495812">
        <ele>17.4412</ele>
        <time>2012-05-03T16:25:13Z</time>
      </trkpt>
      <trkpt lat="59.9211448" lon="17.8501898">
        <ele>17.4412</ele>
        <time>2012-05-03T16:25:20Z</time>
      </trkpt>
      <trkpt lat="59.9214248" lon="17.8507732">
        <ele>17.9218</ele>
        <time>2012-05-03T16:25:27Z</time>
      </trkpt>
      <trkpt lat="59.9218304" lon="17.8516771">
        <ele>17.4412</ele>
        <time>2012-05-03T16:25:38Z</time>
      </trkpt>
      <trkpt lat="59.9222065" lon="17.8524095">
        <ele>17.4412</ele>
        <time>2012-05-03T16:25:47Z</time>
      </trkpt>
      <trkpt lat="59.9225075" lon="17.8527731">
        <ele>17.4412</ele>
        <time>2012-05-03T16:25:53Z</time>
      </trkpt>
      <trkpt lat="59.9228993" lon="17.853127">
        <ele>17.9218</ele>
        <time>2012-05-03T16:26:00Z</time>
      </trkpt>
      <trkpt lat="59.9233773" lon="17.8534935">
        <ele>17.9218</ele>
        <time>2012-05-03T16:26:08Z</time>
      </trkpt>
      <trkpt lat="59.9239125" lon="17.8539503">
        <ele>17.4412</ele>
        <time>2012-05-03T16:26:17Z</time>
      </trkpt>
      <trkpt lat="59.9243891" lon="17.8544033">
        <ele>17.9218</ele>
        <time>2012-05-03T16:26:25Z</time>
      </trkpt>
      <trkpt lat="59.9249152" lon="17.8549279">
        <ele>17.9218</ele>
        <time>2012-05-03T16:26:34Z</time>
      </trkpt>
      <trkpt lat="59.925439" lon="17.8555446">
        <ele>18.8831</ele>
        <time>2012-05-03T16:26:44Z</time>
      </trkpt>
      <trkpt lat="59.9260151" lon="17.8563711">
        <ele>19.3638</ele>
        <time>2012-05-03T16:26:56Z</time>
      </trkpt>
      <trkpt lat="59.9264223" lon="17.8570064">
        <ele>19.8444</ele>
        <time>2012-05-03T16:27:05Z</time>
      </trkpt>
      <trkpt lat="59.9268186" lon="17.857445">
        <ele>19.8444</ele>
        <time>2012-05-03T16:27:12Z</time>
      </trkpt>
      <trkpt lat="59.927318" lon="17.8578614">
        <ele>18.8831</ele>
        <time>2012-05-03T16:27:20Z</time>
      </trkpt>
      <trkpt lat="59.9277867" lon="17.8582069">
        <ele>18.8831</ele>
        <time>2012-05-03T16:27:28Z</time>
      </trkpt>
      <trkpt lat="59.928138" lon="17.858593">
        <ele>19.3638</ele>
        <time>2012-05-03T16:27:35Z</time>
      </trkpt>
      <trkpt lat="59.9285587" lon="17.8590189">
        <ele>19.3638</ele>
        <time>2012-05-03T16:27:43Z</time>
      </trkpt>
      <trkpt lat="59.9290584" lon="17.8595466">
        <ele>19.3638</ele>
        <time>2012-05-03T16:27:52Z</time>
      </trkpt>
      <trkpt lat="59.9295501" lon="17.8599978">
        <ele>18.8831</ele>
        <time>2012-05-03T16:28:01Z</time>
      </trkpt>
      <trkpt lat="59.930088" lon="17.860441">
        <ele>18.8831</ele>
        <time>2012-05-03T16:28:11Z</time>
      </trkpt>
      <trkpt lat="59.9304603" lon="17.8606563">
        <ele>19.3638</ele>
        <time>2012-05-03T16:28:18Z</time>
      </trkpt>
      <trkpt lat="59.9308133" lon="17.8608391">
        <ele>21.2864</ele>
        <time>2012-05-03T16:28:25Z</time>
      </trkpt>
      <trkpt lat="59.9311865" lon="17.8609908">
        <ele>21.767</ele>
        <time>2012-05-03T16:28:32Z</time>
      </trkpt>
      <trkpt lat="59.9315195" lon="17.8611959">
        <ele>20.8057</ele>
        <time>2012-05-03T16:28:38Z</time>
      </trkpt>
      <trkpt lat="59.9319702" lon="17.8614648">
        <ele>21.2864</ele>
        <time>2012-05-03T16:28:46Z</time>
      </trkpt>
      <trkpt lat="59.9323844" lon="17.8616197">
        <ele>21.767</ele>
        <time>2012-05-03T16:28:53Z</time>
      </trkpt>
      <trkpt lat="59.9328362" lon="17.8618746">
        <ele>24.1703</ele>
        <time>2012-05-03T16:29:01Z</time>
      </trkpt>
      <trkpt lat="59.9331777" lon="17.8622349">
        <ele>22.7283</ele>
        <time>2012-05-03T16:29:08Z</time>
      </trkpt>
      <trkpt lat="59.9334805" lon="17.8627447">
        <ele>22.7283</ele>
        <time>2012-05-03T16:29:15Z</time>
      </trkpt>
      <trkpt lat="59.9335509" lon="17.8629156">
        <ele>22.7283</ele>
        <time>2012-05-03T16:29:17Z</time>
      </trkpt>
      <trkpt lat="59.9337035" lon="17.8634593">
        <ele>20.8057</ele>
        <time>2012-05-03T16:29:23Z</time>
      </trkpt>
      <trkpt lat="59.9340302" lon="17.8643005">
        <ele>19.3638</ele>
        <time>2012-05-03T16:29:32Z</time>
      </trkpt>
      <trkpt lat="59.9342525" lon="17.8649768">
        <ele>19.3638</ele>
        <time>2012-05-03T16:29:39Z</time>
      </trkpt>
      <trkpt lat="59.934531" lon="17.8657348">
        <ele>18.8831</ele>
        <time>2012-05-03T16:29:47Z</time>
      </trkpt>
      <trkpt lat="59.9347928" lon="17.8660569">
        <ele>20.325</ele>
        <time>2012-05-03T16:29:52Z</time>
      </trkpt>
      <trkpt lat="59.9348544" lon="17.8660932">
        <ele>20.325</ele>
        <time>2012-05-03T16:29:53Z</time>
      </trkpt>
      <trkpt lat="59.935265" lon="17.8663386">
        <ele>18.8831</ele>
        <time>2012-05-03T16:30:00Z</time>
      </trkpt>
      <trkpt lat="59.9353832" lon="17.8664433">
        <ele>18.4023</ele>
        <time>2012-05-03T16:30:02Z</time>
      </trkpt>
      <trkpt lat="59.9355967" lon="17.866725">
        <ele>17.9218</ele>
        <time>2012-05-03T16:30:06Z</time>
      </trkpt>
      <trkpt lat="59.9357408" lon="17.8671261">
        <ele>17.4412</ele>
        <time>2012-05-03T16:30:10Z</time>
      </trkpt>
      <trkpt lat="59.9360154" lon="17.868102">
        <ele>20.8057</ele>
        <time>2012-05-03T16:30:19Z</time>
      </trkpt>
      <trkpt lat="59.9360764" lon="17.8683262">
        <ele>20.8057</ele>
        <time>2012-05-03T16:30:21Z</time>
      </trkpt>
      <trkpt lat="59.9361537" lon="17.8688045">
        <ele>20.325</ele>
        <time>2012-05-03T16:30:25Z</time>
      </trkpt>
      <trkpt lat="59.9363658" lon="17.8692966">
        <ele>19.3638</ele>
        <time>2012-05-03T16:30:30Z</time>
      </trkpt>
      <trkpt lat="59.9364266" lon="17.8693669">
        <ele>19.3638</ele>
        <time>2012-05-03T16:30:31Z</time>
      </trkpt>
      <trkpt lat="59.936966" lon="17.8698831">
        <ele>20.8057</ele>
        <time>2012-05-03T16:30:40Z</time>
      </trkpt>
      <trkpt lat="59.9373211" lon="17.8704331">
        <ele>21.2864</ele>
        <time>2012-05-03T16:30:47Z</time>
      </trkpt>
      <trkpt lat="59.9375621" lon="17.8710636">
        <ele>19.8444</ele>
        <time>2012-05-03T16:30:53Z</time>
      </trkpt>
      <trkpt lat="59.9376434" lon="17.8712842">
        <ele>19.3638</ele>
        <time>2012-05-03T16:30:55Z</time>
      </trkpt>
      <trkpt lat="59.9378719" lon="17.8716454">
        <ele>18.4023</ele>
        <time>2012-05-03T16:30:59Z</time>
      </trkpt>
      <trkpt lat="59.9385474" lon="17.8723341">
        <ele>18.4023</ele>
        <time>2012-05-03T16:31:09Z</time>
      </trkpt>
      <trkpt lat="59.9390862" lon="17.8726673">
        <ele>16.9604</ele>
        <time>2012-05-03T16:31:17Z</time>
      </trkpt>
      <trkpt lat="59.9392212" lon="17.8727337">
        <ele>16.9604</ele>
        <time>2012-05-03T16:31:19Z</time>
      </trkpt>
      <trkpt lat="59.939562" lon="17.8731382">
        <ele>16.9604</ele>
        <time>2012-05-03T16:31:25Z</time>
      </trkpt>
      <trkpt lat="59.9400303" lon="17.8738907">
        <ele>17.4412</ele>
        <time>2012-05-03T16:31:34Z</time>
      </trkpt>
      <trkpt lat="59.940549" lon="17.8746224">
        <ele>17.4412</ele>
        <time>2012-05-03T16:31:43Z</time>
      </trkpt>
      <trkpt lat="59.9410556" lon="17.8750429">
        <ele>16.4797</ele>
        <time>2012-05-03T16:31:51Z</time>
      </trkpt>
      <trkpt lat="59.9414161" lon="17.8751821">
        <ele>15.0377</ele>
        <time>2012-05-03T16:31:57Z</time>
      </trkpt>
      <trkpt lat="59.9419947" lon="17.8753868">
        <ele>14.557</ele>
        <time>2012-05-03T16:32:06Z</time>
      </trkpt>
      <trkpt lat="59.942367" lon="17.8757453">
        <ele>14.557</ele>
        <time>2012-05-03T16:32:12Z</time>
      </trkpt>
      <trkpt lat="59.9427085" lon="17.8762006">
        <ele>15.0377</ele>
        <time>2012-05-03T16:32:18Z</time>
      </trkpt>
      <trkpt lat="59.9434202" lon="17.8771308">
        <ele>15.0377</ele>
        <time>2012-05-03T16:32:30Z</time>
      </trkpt>
      <trkpt lat="59.9438615" lon="17.8776819">
        <ele>14.0764</ele>
        <time>2012-05-03T16:32:38Z</time>
      </trkpt>
      <trkpt lat="59.9442315" lon="17.8779069">
        <ele>12.1538</ele>
        <time>2012-05-03T16:32:44Z</time>
      </trkpt>
      <trkpt lat="59.9447617" lon="17.8781401">
        <ele>11.1925</ele>
        <time>2012-05-03T16:32:52Z</time>
      </trkpt>
      <trkpt lat="59.9454131" lon="17.8784359">
        <ele>10.7118</ele>
        <time>2012-05-03T16:33:02Z</time>
      </trkpt>
      <trkpt lat="59.9460751" lon="17.8787347">
        <ele>11.6732</ele>
        <time>2012-05-03T16:33:13Z</time>
      </trkpt>
      <trkpt lat="59.946577" lon="17.8789961">
        <ele>11.1925</ele>
        <time>2012-05-03T16:33:22Z</time>
      </trkpt>
      <trkpt lat="59.9472541" lon="17.8793991">
        <ele>11.6732</ele>
        <time>2012-05-03T16:33:34Z</time>
      </trkpt>
      <trkpt lat="59.9477253" lon="17.8795349">
        <ele>10.7118</ele>
        <time>2012-05-03T16:33:42Z</time>
      </trkpt>
      <trkpt lat="59.9483279" lon="17.8797253">
        <ele>11.6732</ele>
        <time>2012-05-03T16:33:52Z</time>
      </trkpt>
      <trkpt lat="59.948661" lon="17.8799173">
        <ele>11.6732</ele>
        <time>2012-05-03T16:33:58Z</time>
      </trkpt>
      <trkpt lat="59.9491004" lon="17.8802721">
        <ele>11.1925</ele>
        <time>2012-05-03T16:34:06Z</time>
      </trkpt>
      <trkpt lat="59.9494467" lon="17.8805098">
        <ele>11.1925</ele>
        <time>2012-05-03T16:34:12Z</time>
      </trkpt>
      <trkpt lat="59.9494984" lon="17.8805337">
        <ele>11.1925</ele>
        <time>2012-05-03T16:34:13Z</time>
      </trkpt>
      <trkpt lat="59.9497501" lon="17.8805488">
        <ele>12.1538</ele>
        <time>2012-05-03T16:34:18Z</time>
      </trkpt>
      <trkpt lat="59.9499793" lon="17.8803689">
        <ele>12.6344</ele>
        <time>2012-05-03T16:34:23Z</time>
      </trkpt>
      <trkpt lat="59.9500653" lon="17.8802473">
        <ele>13.1151</ele>
        <time>2012-05-03T16:34:25Z</time>
      </trkpt>
      <trkpt lat="59.950314" lon="17.8796944">
        <ele>15.5184</ele>
        <time>2012-05-03T16:34:32Z</time>
      </trkpt>
      <trkpt lat="59.9505489" lon="17.8790259">
        <ele>15.5184</ele>
        <time>2012-05-03T16:34:39Z</time>
      </trkpt>
      <trkpt lat="59.9507921" lon="17.8784652">
        <ele>15.999</ele>
        <time>2012-05-03T16:34:45Z</time>
      </trkpt>
      <trkpt lat="59.9510877" lon="17.8781321">
        <ele>15.999</ele>
        <time>2012-05-03T16:34:51Z</time>
      </trkpt>
      <trkpt lat="59.9512721" lon="17.8777976">
        <ele>15.999</ele>
        <time>2012-05-03T16:34:56Z</time>
      </trkpt>
      <trkpt lat="59.9512987" lon="17.8775113">
        <ele>16.4797</ele>
        <time>2012-05-03T16:34:59Z</time>
      </trkpt>
      <trkpt lat="59.9513003" lon="17.8768016">
        <ele>18.4023</ele>
        <time>2012-05-03T16:35:06Z</time>
      </trkpt>
      <trkpt lat="59.9513079" lon="17.876499">
        <ele>18.8831</ele>
        <time>2012-05-03T16:35:10Z</time>
      </trkpt>
      <trkpt lat="59.9513868" lon="17.8762063">
        <ele>18.4023</ele>
        <time>2012-05-03T16:35:15Z</time>
      </trkpt>
      <trkpt lat="59.951393" lon="17.8761307">
        <ele>18.4023</ele>
        <time>2012-05-03T16:35:16Z</time>
      </trkpt>
      <trkpt lat="59.951404" lon="17.8757809">
        <ele>18.4023</ele>
        <time>2012-05-03T16:35:22Z</time>
      </trkpt>
      <trkpt lat="59.9514022" lon="17.8756783">
        <ele>17.9218</ele>
        <time>2012-05-03T16:35:29Z</time>
      </trkpt>
      <trkpt lat="59.9514018" lon="17.8756788">
        <ele>17.9218</ele>
        <time>2012-05-03T16:35:30Z</time>
      </trkpt>
      <trkpt lat="59.951413" lon="17.8754351">
        <ele>23.209</ele>
        <time>2012-05-03T16:38:02Z</time>
      </trkpt>
      <trkpt lat="59.9514138" lon="17.8754076">
        <ele>23.209</ele>
        <time>2012-05-03T16:38:03Z</time>
      </trkpt>
      <trkpt lat="59.951421" lon="17.8751816">
        <ele>23.209</ele>
        <time>2012-05-03T16:38:09Z</time>
      </trkpt>
      <trkpt lat="59.9514518" lon="17.8747721">
        <ele>22.7283</ele>
        <time>2012-05-03T16:38:14Z</time>
      </trkpt>
      <trkpt lat="59.9515078" lon="17.874085">
        <ele>22.2476</ele>
        <time>2012-05-03T16:38:20Z</time>
      </trkpt>
      <trkpt lat="59.9515602" lon="17.8731616">
        <ele>21.2864</ele>
        <time>2012-05-03T16:38:27Z</time>
      </trkpt>
      <trkpt lat="59.9516209" lon="17.8722775">
        <ele>19.8444</ele>
        <time>2012-05-03T16:38:33Z</time>
      </trkpt>
      <trkpt lat="59.9516266" lon="17.8711672">
        <ele>18.4023</ele>
        <time>2012-05-03T16:38:40Z</time>
      </trkpt>
      <trkpt lat="59.9516771" lon="17.8706047">
        <ele>18.4023</ele>
        <time>2012-05-03T16:38:44Z</time>
      </trkpt>
      <trkpt lat="59.9517805" lon="17.8700658">
        <ele>17.9218</ele>
        <time>2012-05-03T16:38:49Z</time>
      </trkpt>
      <trkpt lat="59.9519364" lon="17.8698337">
        <ele>17.9218</ele>
        <time>2012-05-03T16:38:53Z</time>
      </trkpt>
      <trkpt lat="59.9519901" lon="17.8698307">
        <ele>17.9218</ele>
        <time>2012-05-03T16:38:54Z</time>
      </trkpt>
      <trkpt lat="59.9522558" lon="17.8696069">
        <ele>17.4412</ele>
        <time>2012-05-03T16:38:59Z</time>
      </trkpt>
      <trkpt lat="59.9523135" lon="17.8692396">
        <ele>17.9218</ele>
        <time>2012-05-03T16:39:02Z</time>
      </trkpt>
      <trkpt lat="59.9523005" lon="17.8689649">
        <ele>17.9218</ele>
        <time>2012-05-03T16:39:04Z</time>
      </trkpt>
      <trkpt lat="59.9521843" lon="17.8680398">
        <ele>19.3638</ele>
        <time>2012-05-03T16:39:11Z</time>
      </trkpt>
      <trkpt lat="59.9521944" lon="17.8672691">
        <ele>20.8057</ele>
        <time>2012-05-03T16:39:17Z</time>
      </trkpt>
      <trkpt lat="59.9522936" lon="17.8663011">
        <ele>21.2864</ele>
        <time>2012-05-03T16:39:25Z</time>
      </trkpt>
      <trkpt lat="59.9524182" lon="17.8650915">
        <ele>22.2476</ele>
        <time>2012-05-03T16:39:35Z</time>
      </trkpt>
      <trkpt lat="59.9525259" lon="17.8640517">
        <ele>21.2864</ele>
        <time>2012-05-03T16:39:43Z</time>
      </trkpt>
      <trkpt lat="59.9526491" lon="17.8627422">
        <ele>20.325</ele>
        <time>2012-05-03T16:39:52Z</time>
      </trkpt>
      <trkpt lat="59.9527589" lon="17.861614">
        <ele>19.3638</ele>
        <time>2012-05-03T16:40:00Z</time>
      </trkpt>
      <trkpt lat="59.952902" lon="17.8601483">
        <ele>18.4023</ele>
        <time>2012-05-03T16:40:11Z</time>
      </trkpt>
      <trkpt lat="59.9530305" lon="17.8588117">
        <ele>17.4412</ele>
        <time>2012-05-03T16:40:21Z</time>
      </trkpt>
      <trkpt lat="59.9531671" lon="17.857458">
        <ele>17.9218</ele>
        <time>2012-05-03T16:40:31Z</time>
      </trkpt>
      <trkpt lat="59.9532603" lon="17.8565484">
        <ele>19.3638</ele>
        <time>2012-05-03T16:40:38Z</time>
      </trkpt>
      <trkpt lat="59.953356" lon="17.8556295">
        <ele>18.4023</ele>
        <time>2012-05-03T16:40:45Z</time>
      </trkpt>
      <trkpt lat="59.9534915" lon="17.854322">
        <ele>17.9218</ele>
        <time>2012-05-03T16:40:55Z</time>
      </trkpt>
      <trkpt lat="59.9535904" lon="17.8532861">
        <ele>17.9218</ele>
        <time>2012-05-03T16:41:04Z</time>
      </trkpt>
      <trkpt lat="59.9536753" lon="17.8523793">
        <ele>18.4023</ele>
        <time>2012-05-03T16:41:12Z</time>
      </trkpt>
      <trkpt lat="59.9537929" lon="17.8512871">
        <ele>19.3638</ele>
        <time>2012-05-03T16:41:21Z</time>
      </trkpt>
      <trkpt lat="59.9539193" lon="17.8500851">
        <ele>19.8444</ele>
        <time>2012-05-03T16:41:30Z</time>
      </trkpt>
      <trkpt lat="59.954029" lon="17.8486221">
        <ele>17.4412</ele>
        <time>2012-05-03T16:41:40Z</time>
      </trkpt>
      <trkpt lat="59.9540882" lon="17.8471557">
        <ele>17.4412</ele>
        <time>2012-05-03T16:41:50Z</time>
      </trkpt>
      <trkpt lat="59.9540963" lon="17.8454645">
        <ele>17.4412</ele>
        <time>2012-05-03T16:42:02Z</time>
      </trkpt>
      <trkpt lat="59.9540323" lon="17.8439461">
        <ele>17.9218</ele>
        <time>2012-05-03T16:42:13Z</time>
      </trkpt>
      <trkpt lat="59.9539417" lon="17.8427549">
        <ele>18.4023</ele>
        <time>2012-05-03T16:42:22Z</time>
      </trkpt>
      <trkpt lat="59.9538085" lon="17.8415245">
        <ele>19.8444</ele>
        <time>2012-05-03T16:42:32Z</time>
      </trkpt>
      <trkpt lat="59.9536655" lon="17.8404617">
        <ele>20.325</ele>
        <time>2012-05-03T16:42:41Z</time>
      </trkpt>
      <trkpt lat="59.9534456" lon="17.8392323">
        <ele>19.8444</ele>
        <time>2012-05-03T16:42:51Z</time>
      </trkpt>
      <trkpt lat="59.9531838" lon="17.8380399">
        <ele>19.3638</ele>
        <time>2012-05-03T16:43:01Z</time>
      </trkpt>
      <trkpt lat="59.9529071" lon="17.8370037">
        <ele>18.4023</ele>
        <time>2012-05-03T16:43:10Z</time>
      </trkpt>
      <trkpt lat="59.952545" lon="17.835861">
        <ele>18.4023</ele>
        <time>2012-05-03T16:43:20Z</time>
      </trkpt>
      <trkpt lat="59.9521358" lon="17.8347892">
        <ele>16.9604</ele>
        <time>2012-05-03T16:43:30Z</time>
      </trkpt>
      <trkpt lat="59.9516521" lon="17.8336775">
        <ele>15.999</ele>
        <time>2012-05-03T16:43:41Z</time>
      </trkpt>
      <trkpt lat="59.9511921" lon="17.8326674">
        <ele>16.9604</ele>
        <time>2012-05-03T16:43:51Z</time>
      </trkpt>
      <trkpt lat="59.950671" lon="17.8314889">
        <ele>16.9604</ele>
        <time>2012-05-03T16:44:03Z</time>
      </trkpt>
      <trkpt lat="59.9503202" lon="17.8307502">
        <ele>17.9218</ele>
        <time>2012-05-03T16:44:12Z</time>
      </trkpt>
      <trkpt lat="59.9501958" lon="17.830423">
        <ele>17.9218</ele>
        <time>2012-05-03T16:44:16Z</time>
      </trkpt>
      <trkpt lat="59.9501295" lon="17.829951">
        <ele>17.4412</ele>
        <time>2012-05-03T16:44:21Z</time>
      </trkpt>
      <trkpt lat="59.9500951" lon="17.8296736">
        <ele>16.9604</ele>
        <time>2012-05-03T16:44:24Z</time>
      </trkpt>
      <trkpt lat="59.9500732" lon="17.8287779">
        <ele>16.9604</ele>
        <time>2012-05-03T16:44:32Z</time>
      </trkpt>
      <trkpt lat="59.9500548" lon="17.8277699">
        <ele>16.9604</ele>
        <time>2012-05-03T16:44:40Z</time>
      </trkpt>
      <trkpt lat="59.9500928" lon="17.8265544">
        <ele>16.4797</ele>
        <time>2012-05-03T16:44:50Z</time>
      </trkpt>
      <trkpt lat="59.9502167" lon="17.8258464">
        <ele>16.4797</ele>
        <time>2012-05-03T16:44:56Z</time>
      </trkpt>
      <trkpt lat="59.9504916" lon="17.8246458">
        <ele>17.4412</ele>
        <time>2012-05-03T16:45:07Z</time>
      </trkpt>
      <trkpt lat="59.9506873" lon="17.8237102">
        <ele>16.4797</ele>
        <time>2012-05-03T16:45:16Z</time>
      </trkpt>
      <trkpt lat="59.950772" lon="17.822961">
        <ele>15.0377</ele>
        <time>2012-05-03T16:45:23Z</time>
      </trkpt>
      <trkpt lat="59.9508574" lon="17.8221823">
        <ele>14.557</ele>
        <time>2012-05-03T16:45:30Z</time>
      </trkpt>
      <trkpt lat="59.9509431" lon="17.8211647">
        <ele>14.557</ele>
        <time>2012-05-03T16:45:39Z</time>
      </trkpt>
      <trkpt lat="59.9510033" lon="17.8201846">
        <ele>15.5184</ele>
        <time>2012-05-03T16:45:48Z</time>
      </trkpt>
      <trkpt lat="59.9510329" lon="17.8189067">
        <ele>16.9604</ele>
        <time>2012-05-03T16:46:00Z</time>
      </trkpt>
      <trkpt lat="59.9511184" lon="17.8180793">
        <ele>16.9604</ele>
        <time>2012-05-03T16:46:08Z</time>
      </trkpt>
      <trkpt lat="59.9512009" lon="17.8172843">
        <ele>16.4797</ele>
        <time>2012-05-03T16:46:16Z</time>
      </trkpt>
      <trkpt lat="59.9512829" lon="17.8164495">
        <ele>16.9604</ele>
        <time>2012-05-03T16:46:24Z</time>
      </trkpt>
      <trkpt lat="59.9513467" lon="17.8153174">
        <ele>17.4412</ele>
        <time>2012-05-03T16:46:34Z</time>
      </trkpt>
      <trkpt lat="59.9513692" lon="17.8140719">
        <ele>17.9218</ele>
        <time>2012-05-03T16:46:45Z</time>
      </trkpt>
      <trkpt lat="59.9513816" lon="17.8130929">
        <ele>18.8831</ele>
        <time>2012-05-03T16:46:54Z</time>
      </trkpt>
      <trkpt lat="59.9514073" lon="17.8117996">
        <ele>19.8444</ele>
        <time>2012-05-03T16:47:06Z</time>
      </trkpt>
      <trkpt lat="59.9515396" lon="17.8108647">
        <ele>20.325</ele>
        <time>2012-05-03T16:47:15Z</time>
      </trkpt>
      <trkpt lat="59.9517062" lon="17.8100987">
        <ele>20.8057</ele>
        <time>2012-05-03T16:47:23Z</time>
      </trkpt>
      <trkpt lat="59.9518689" lon="17.8094959">
        <ele>20.8057</ele>
        <time>2012-05-03T16:47:30Z</time>
      </trkpt>
      <trkpt lat="59.9519441" lon="17.8092017">
        <ele>20.8057</ele>
        <time>2012-05-03T16:47:33Z</time>
      </trkpt>
      <trkpt lat="59.9521777" lon="17.8083461">
        <ele>21.2864</ele>
        <time>2012-05-03T16:47:43Z</time>
      </trkpt>
      <trkpt lat="59.9524202" lon="17.8074353">
        <ele>22.7283</ele>
        <time>2012-05-03T16:47:54Z</time>
      </trkpt>
      <trkpt lat="59.9526066" lon="17.8067149">
        <ele>23.6896</ele>
        <time>2012-05-03T16:48:03Z</time>
      </trkpt>
      <trkpt lat="59.9527622" lon="17.8059083">
        <ele>24.1703</ele>
        <time>2012-05-03T16:48:13Z</time>
      </trkpt>
      <trkpt lat="59.9528848" lon="17.8049572">
        <ele>21.2864</ele>
        <time>2012-05-03T16:48:23Z</time>
      </trkpt>
      <trkpt lat="59.952953" lon="17.8045996">
        <ele>21.767</ele>
        <time>2012-05-03T16:48:27Z</time>
      </trkpt>
      <trkpt lat="59.952989" lon="17.8044195">
        <ele>23.209</ele>
        <time>2012-05-03T16:48:29Z</time>
      </trkpt>
      <trkpt lat="59.9531799" lon="17.8039092">
        <ele>25.6123</ele>
        <time>2012-05-03T16:48:37Z</time>
      </trkpt>
      <trkpt lat="59.9532588" lon="17.8037285">
        <ele>27.0543</ele>
        <time>2012-05-03T16:48:40Z</time>
      </trkpt>
      <trkpt lat="59.9534437" lon="17.803199">
        <ele>28.4962</ele>
        <time>2012-05-03T16:48:47Z</time>
      </trkpt>
      <trkpt lat="59.9536023" lon="17.8025111">
        <ele>26.5736</ele>
        <time>2012-05-03T16:48:54Z</time>
      </trkpt>
      <trkpt lat="59.953693" lon="17.8020419">
        <ele>26.0929</ele>
        <time>2012-05-03T16:48:58Z</time>
      </trkpt>
      <trkpt lat="59.9539085" lon="17.8014669">
        <ele>24.651</ele>
        <time>2012-05-03T16:49:03Z</time>
      </trkpt>
      <trkpt lat="59.9543673" lon="17.8002022">
        <ele>25.6123</ele>
        <time>2012-05-03T16:49:13Z</time>
      </trkpt>
      <trkpt lat="59.9547594" lon="17.7993162">
        <ele>25.6123</ele>
        <time>2012-05-03T16:49:21Z</time>
      </trkpt>
      <trkpt lat="59.9550222" lon="17.7988243">
        <ele>27.5349</ele>
        <time>2012-05-03T16:49:27Z</time>
      </trkpt>
      <trkpt lat="59.9552925" lon="17.7981349">
        <ele>25.6123</ele>
        <time>2012-05-03T16:49:34Z</time>
      </trkpt>
      <trkpt lat="59.9555847" lon="17.7971357">
        <ele>25.1317</ele>
        <time>2012-05-03T16:49:43Z</time>
      </trkpt>
      <trkpt lat="59.955765" lon="17.796291">
        <ele>25.1317</ele>
        <time>2012-05-03T16:49:50Z</time>
      </trkpt>
      <trkpt lat="59.9559898" lon="17.7951339">
        <ele>24.651</ele>
        <time>2012-05-03T16:50:00Z</time>
      </trkpt>
      <trkpt lat="59.9562006" lon="17.7943053">
        <ele>24.1703</ele>
        <time>2012-05-03T16:50:08Z</time>
      </trkpt>
      <trkpt lat="59.9564161" lon="17.7933036">
        <ele>24.651</ele>
        <time>2012-05-03T16:50:18Z</time>
      </trkpt>
      <trkpt lat="59.9565899" lon="17.7923272">
        <ele>25.6123</ele>
        <time>2012-05-03T16:50:28Z</time>
      </trkpt>
      <trkpt lat="59.9567353" lon="17.7913832">
        <ele>25.6123</ele>
        <time>2012-05-03T16:50:37Z</time>
      </trkpt>
      <trkpt lat="59.9566855" lon="17.7908311">
        <ele>26.0929</ele>
        <time>2012-05-03T16:50:42Z</time>
      </trkpt>
      <trkpt lat="59.9565615" lon="17.79021">
        <ele>25.1317</ele>
        <time>2012-05-03T16:50:47Z</time>
      </trkpt>
      <trkpt lat="59.9565942" lon="17.7896914">
        <ele>24.1703</ele>
        <time>2012-05-03T16:50:51Z</time>
      </trkpt>
      <trkpt lat="59.9567389" lon="17.7894397">
        <ele>24.1703</ele>
        <time>2012-05-03T16:50:54Z</time>
      </trkpt>
      <trkpt lat="59.9571072" lon="17.7889414">
        <ele>23.209</ele>
        <time>2012-05-03T16:51:01Z</time>
      </trkpt>
      <trkpt lat="59.9572996" lon="17.7884749">
        <ele>24.1703</ele>
        <time>2012-05-03T16:51:06Z</time>
      </trkpt>
      <trkpt lat="59.9575158" lon="17.7877236">
        <ele>24.1703</ele>
        <time>2012-05-03T16:51:13Z</time>
      </trkpt>
      <trkpt lat="59.9576939" lon="17.7869442">
        <ele>23.6896</ele>
        <time>2012-05-03T16:51:20Z</time>
      </trkpt>
      <trkpt lat="59.957723" lon="17.7868325">
        <ele>23.6896</ele>
        <time>2012-05-03T16:51:21Z</time>
      </trkpt>
      <trkpt lat="59.9579675" lon="17.7864056">
        <ele>21.767</ele>
        <time>2012-05-03T16:51:26Z</time>
      </trkpt>
      <trkpt lat="59.9585237" lon="17.7857728">
        <ele>20.325</ele>
        <time>2012-05-03T16:51:36Z</time>
      </trkpt>
      <trkpt lat="59.9588926" lon="17.7854364">
        <ele>20.325</ele>
        <time>2012-05-03T16:51:43Z</time>
      </trkpt>
      <trkpt lat="59.9593083" lon="17.7850287">
        <ele>20.8057</ele>
        <time>2012-05-03T16:51:51Z</time>
      </trkpt>
      <trkpt lat="59.9596386" lon="17.7844849">
        <ele>21.2864</ele>
        <time>2012-05-03T16:51:59Z</time>
      </trkpt>
      <trkpt lat="59.9599505" lon="17.7838362">
        <ele>22.2476</ele>
        <time>2012-05-03T16:52:07Z</time>
      </trkpt>
      <trkpt lat="59.9601815" lon="17.7831873">
        <ele>23.6896</ele>
        <time>2012-05-03T16:52:14Z</time>
      </trkpt>
      <trkpt lat="59.9604705" lon="17.7823225">
        <ele>23.6896</ele>
        <time>2012-05-03T16:52:23Z</time>
      </trkpt>
      <trkpt lat="59.9605373" lon="17.7821107">
        <ele>24.1703</ele>
        <time>2012-05-03T16:52:25Z</time>
      </trkpt>
      <trkpt lat="59.9609114" lon="17.7813763">
        <ele>23.6896</ele>
        <time>2012-05-03T16:52:33Z</time>
      </trkpt>
      <trkpt lat="59.9614637" lon="17.7803387">
        <ele>23.209</ele>
        <time>2012-05-03T16:52:45Z</time>
      </trkpt>
      <trkpt lat="59.9618397" lon="17.7794978">
        <ele>23.209</ele>
        <time>2012-05-03T16:52:54Z</time>
      </trkpt>
      <trkpt lat="59.9622333" lon="17.7786064">
        <ele>22.7283</ele>
        <time>2012-05-03T16:53:03Z</time>
      </trkpt>
      <trkpt lat="59.9627488" lon="17.7774797">
        <ele>22.2476</ele>
        <time>2012-05-03T16:53:14Z</time>
      </trkpt>
      <trkpt lat="59.963074" lon="17.7766598">
        <ele>22.7283</ele>
        <time>2012-05-03T16:53:22Z</time>
      </trkpt>
      <trkpt lat="59.9633905" lon="17.7756176">
        <ele>23.6896</ele>
        <time>2012-05-03T16:53:32Z</time>
      </trkpt>
      <trkpt lat="59.9636048" lon="17.7747762">
        <ele>23.6896</ele>
        <time>2012-05-03T16:53:40Z</time>
      </trkpt>
      <trkpt lat="59.963772" lon="17.773794">
        <ele>23.209</ele>
        <time>2012-05-03T16:53:49Z</time>
      </trkpt>
      <trkpt lat="59.9638645" lon="17.7729398">
        <ele>23.6896</ele>
        <time>2012-05-03T16:53:56Z</time>
      </trkpt>
      <trkpt lat="59.9637791" lon="17.7721604">
        <ele>23.209</ele>
        <time>2012-05-03T16:54:02Z</time>
      </trkpt>
      <trkpt lat="59.9636056" lon="17.7714114">
        <ele>23.209</ele>
        <time>2012-05-03T16:54:09Z</time>
      </trkpt>
      <trkpt lat="59.9634612" lon="17.7705529">
        <ele>23.209</ele>
        <time>2012-05-03T16:54:17Z</time>
      </trkpt>
      <trkpt lat="59.9634451" lon="17.7699597">
        <ele>23.209</ele>
        <time>2012-05-03T16:54:23Z</time>
      </trkpt>
      <trkpt lat="59.9634469" lon="17.7698537">
        <ele>23.209</ele>
        <time>2012-05-03T16:54:24Z</time>
      </trkpt>
      <trkpt lat="59.9635077" lon="17.7694303">
        <ele>22.7283</ele>
        <time>2012-05-03T16:54:28Z</time>
      </trkpt>
      <trkpt lat="59.9637685" lon="17.7685116">
        <ele>23.209</ele>
        <time>2012-05-03T16:54:37Z</time>
      </trkpt>
      <trkpt lat="59.9639473" lon="17.7677765">
        <ele>26.0929</ele>
        <time>2012-05-03T16:54:45Z</time>
      </trkpt>
      <trkpt lat="59.9640577" lon="17.7670139">
        <ele>27.5349</ele>
        <time>2012-05-03T16:54:53Z</time>
      </trkpt>
      <trkpt lat="59.9640472" lon="17.7664074">
        <ele>28.0155</ele>
        <time>2012-05-03T16:54:59Z</time>
      </trkpt>
      <trkpt lat="59.9640589" lon="17.7657817">
        <ele>27.5349</ele>
        <time>2012-05-03T16:55:04Z</time>
      </trkpt>
      <trkpt lat="59.9641074" lon="17.7651593">
        <ele>25.6123</ele>
        <time>2012-05-03T16:55:08Z</time>
      </trkpt>
      <trkpt lat="59.964322" lon="17.7642203">
        <ele>24.1703</ele>
        <time>2012-05-03T16:55:14Z</time>
      </trkpt>
      <trkpt lat="59.9645209" lon="17.7634273">
        <ele>23.209</ele>
        <time>2012-05-03T16:55:20Z</time>
      </trkpt>
      <trkpt lat="59.9647421" lon="17.7626264">
        <ele>22.7283</ele>
        <time>2012-05-03T16:55:27Z</time>
      </trkpt>
      <trkpt lat="59.9650467" lon="17.761866">
        <ele>21.2864</ele>
        <time>2012-05-03T16:55:34Z</time>
      </trkpt>
      <trkpt lat="59.9651632" lon="17.7615589">
        <ele>20.8057</ele>
        <time>2012-05-03T16:55:37Z</time>
      </trkpt>
      <trkpt lat="59.9652604" lon="17.7612517">
        <ele>21.767</ele>
        <time>2012-05-03T16:55:40Z</time>
      </trkpt>
      <trkpt lat="59.9654129" lon="17.760908">
        <ele>21.2864</ele>
        <time>2012-05-03T16:55:44Z</time>
      </trkpt>
      <trkpt lat="59.9657518" lon="17.7603493">
        <ele>20.325</ele>
        <time>2012-05-03T16:55:52Z</time>
      </trkpt>
      <trkpt lat="59.9661381" lon="17.7597849">
        <ele>15.5184</ele>
        <time>2012-05-03T16:56:01Z</time>
      </trkpt>
      <trkpt lat="59.9665141" lon="17.7592848">
        <ele>11.1925</ele>
        <time>2012-05-03T16:56:10Z</time>
      </trkpt>
      <trkpt lat="59.9668491" lon="17.7589753">
        <ele>8.30859</ele>
        <time>2012-05-03T16:56:17Z</time>
      </trkpt>
      <trkpt lat="59.9673377" lon="17.7585897">
        <ele>5.90527</ele>
        <time>2012-05-03T16:56:27Z</time>
      </trkpt>
      <trkpt lat="59.9678025" lon="17.758123">
        <ele>4.46326</ele>
        <time>2012-05-03T16:56:37Z</time>
      </trkpt>
      <trkpt lat="59.9680516" lon="17.7576461">
        <ele>12.6344</ele>
        <time>2012-05-03T16:56:44Z</time>
      </trkpt>
      <trkpt lat="59.9683245" lon="17.7571499">
        <ele>17.9218</ele>
        <time>2012-05-03T16:56:53Z</time>
      </trkpt>
      <trkpt lat="59.9686141" lon="17.7566818">
        <ele>19.3638</ele>
        <time>2012-05-03T16:57:01Z</time>
      </trkpt>
      <trkpt lat="59.9688687" lon="17.7561892">
        <ele>19.8444</ele>
        <time>2012-05-03T16:57:08Z</time>
      </trkpt>
      <trkpt lat="59.9691809" lon="17.7555239">
        <ele>18.8831</ele>
        <time>2012-05-03T16:57:16Z</time>
      </trkpt>
      <trkpt lat="59.9695384" lon="17.7547562">
        <ele>18.8831</ele>
        <time>2012-05-03T16:57:25Z</time>
      </trkpt>
      <trkpt lat="59.9699445" lon="17.7538959">
        <ele>18.4023</ele>
        <time>2012-05-03T16:57:35Z</time>
      </trkpt>
      <trkpt lat="59.9702666" lon="17.7530265">
        <ele>20.325</ele>
        <time>2012-05-03T16:57:44Z</time>
      </trkpt>
      <trkpt lat="59.970523" lon="17.7524128">
        <ele>20.325</ele>
        <time>2012-05-03T16:57:51Z</time>
      </trkpt>
      <trkpt lat="59.9708404" lon="17.7519211">
        <ele>17.9218</ele>
        <time>2012-05-03T16:57:58Z</time>
      </trkpt>
      <trkpt lat="59.9709393" lon="17.7518001">
        <ele>16.4797</ele>
        <time>2012-05-03T16:58:00Z</time>
      </trkpt>
      <trkpt lat="59.9713351" lon="17.7514054">
        <ele>13.5958</ele>
        <time>2012-05-03T16:58:08Z</time>
      </trkpt>
      <trkpt lat="59.9716756" lon="17.7510226">
        <ele>11.6732</ele>
        <time>2012-05-03T16:58:16Z</time>
      </trkpt>
      <trkpt lat="59.9719006" lon="17.7504087">
        <ele>24.651</ele>
        <time>2012-05-03T16:58:23Z</time>
      </trkpt>
      <trkpt lat="59.9720314" lon="17.7500242">
        <ele>29.9381</ele>
        <time>2012-05-03T16:58:28Z</time>
      </trkpt>
      <trkpt lat="59.9721713" lon="17.7496929">
        <ele>30.4188</ele>
        <time>2012-05-03T16:58:33Z</time>
      </trkpt>
      <trkpt lat="59.9723834" lon="17.7492079">
        <ele>28.4962</ele>
        <time>2012-05-03T16:58:39Z</time>
      </trkpt>
      <trkpt lat="59.972735" lon="17.7484148">
        <ele>26.0929</ele>
        <time>2012-05-03T16:58:48Z</time>
      </trkpt>
      <trkpt lat="59.972984" lon="17.7479865">
        <ele>23.6896</ele>
        <time>2012-05-03T16:58:53Z</time>
      </trkpt>
      <trkpt lat="59.9733807" lon="17.7475419">
        <ele>22.7283</ele>
        <time>2012-05-03T16:59:00Z</time>
      </trkpt>
      <trkpt lat="59.9737383" lon="17.7472075">
        <ele>21.767</ele>
        <time>2012-05-03T16:59:07Z</time>
      </trkpt>
      <trkpt lat="59.9740741" lon="17.7468199">
        <ele>20.8057</ele>
        <time>2012-05-03T16:59:14Z</time>
      </trkpt>
      <trkpt lat="59.9743942" lon="17.7464246">
        <ele>17.9218</ele>
        <time>2012-05-03T16:59:21Z</time>
      </trkpt>
      <trkpt lat="59.9746221" lon="17.745946">
        <ele>21.767</ele>
        <time>2012-05-03T16:59:27Z</time>
      </trkpt>
      <trkpt lat="59.974878" lon="17.7452729">
        <ele>27.0543</ele>
        <time>2012-05-03T16:59:34Z</time>
      </trkpt>
      <trkpt lat="59.97512" lon="17.74449">
        <ele>28.9769</ele>
        <time>2012-05-03T16:59:41Z</time>
      </trkpt>
      <trkpt lat="59.9752932" lon="17.7436246">
        <ele>30.4188</ele>
        <time>2012-05-03T16:59:48Z</time>
      </trkpt>
      <trkpt lat="59.9755" lon="17.7428051">
        <ele>30.8995</ele>
        <time>2012-05-03T16:59:55Z</time>
      </trkpt>
      <trkpt lat="59.9757084" lon="17.7420284">
        <ele>30.8995</ele>
        <time>2012-05-03T17:00:02Z</time>
      </trkpt>
      <trkpt lat="59.9759353" lon="17.7410932">
        <ele>30.8995</ele>
        <time>2012-05-03T17:00:10Z</time>
      </trkpt>
      <trkpt lat="59.976174" lon="17.7403231">
        <ele>30.8995</ele>
        <time>2012-05-03T17:00:17Z</time>
      </trkpt>
      <trkpt lat="59.9763626" lon="17.7398044">
        <ele>29.9381</ele>
        <time>2012-05-03T17:00:22Z</time>
      </trkpt>
      <trkpt lat="59.9766267" lon="17.7394533">
        <ele>29.9381</ele>
        <time>2012-05-03T17:00:27Z</time>
      </trkpt>
      <trkpt lat="59.9766837" lon="17.7394351">
        <ele>29.4575</ele>
        <time>2012-05-03T17:00:28Z</time>
      </trkpt>
      <trkpt lat="59.9770547" lon="17.7392889">
        <ele>27.0543</ele>
        <time>2012-05-03T17:00:36Z</time>
      </trkpt>
      <trkpt lat="59.9773866" lon="17.7391107">
        <ele>27.5349</ele>
        <time>2012-05-03T17:00:44Z</time>
      </trkpt>
      <trkpt lat="59.977618" lon="17.7390923">
        <ele>27.5349</ele>
        <time>2012-05-03T17:00:50Z</time>
      </trkpt>
      <trkpt lat="59.9778995" lon="17.7392296">
        <ele>28.9769</ele>
        <time>2012-05-03T17:00:58Z</time>
      </trkpt>
      <trkpt lat="59.978067" lon="17.7392573">
        <ele>34.2642</ele>
        <time>2012-05-03T17:01:03Z</time>
      </trkpt>
      <trkpt lat="59.9783357" lon="17.7392611">
        <ele>36.6675</ele>
        <time>2012-05-03T17:01:09Z</time>
      </trkpt>
      <trkpt lat="59.9786391" lon="17.7393474">
        <ele>33.7834</ele>
        <time>2012-05-03T17:01:15Z</time>
      </trkpt>
      <trkpt lat="59.978773" lon="17.7393781">
        <ele>31.3801</ele>
        <time>2012-05-03T17:01:18Z</time>
      </trkpt>
      <trkpt lat="59.9789167" lon="17.7393202">
        <ele>29.9381</ele>
        <time>2012-05-03T17:01:21Z</time>
      </trkpt>
      <trkpt lat="59.9788008" lon="17.739863">
        <ele>34.2642</ele>
        <time>2012-05-03T17:04:08Z</time>
      </trkpt>
      <trkpt lat="59.978804" lon="17.7398563">
        <ele>34.7449</ele>
        <time>2012-05-03T17:04:09Z</time>
      </trkpt>
      <trkpt lat="59.9788065" lon="17.7398483">
        <ele>33.7834</ele>
        <time>2012-05-03T17:04:10Z</time>
      </trkpt>
    </trkseg>
  </trk>
</gpx>